PWSweather.com
Personal Weather Stations
Station Observations
INOORDHO74
Beach, Egmond Aan ZeeNL 1931VT

BeachEgmond Aan ZeeNL 1931VT

Lat: 52.6152079, Lon: 4.6259683

Elevation: 42

Station Type: Davis Vantage Pro 2

http://www.webcamegmond.nl/het-weer-in-egmond/

Latest ConditionsUpdated 8:29:00 AM GMT+01:01 Saturday, Apr 20, 2019
Currently Today's Max Today's Min Today's Average
Temperature 59.9°F15.5°C 59.9°F15.5°C 51.1°F10.6°C 53.8°F12.1°C
Dew Point 48.9°F9.4°C 49.0°F9.4°C 45.6°F7.6°C 46.7°F8.2°C
Winds 9.0 mph E14.5 kmh E 9.0 mph -14.5 kmh - - 7.6 mph 12.2 kmh
Wind Gusts 14.0 mph22.5 kmh 14.0 mph22.5 kmh - -
Humidity 67% 82% 67% 77%
Pressure 30.43 in1030.5 mb 30.43 in1030.5 mb 30.40 in1029.5 mb -
Hour Temp Dew Point Humidity Winds Wind Gusts Pressure Precip Precip Rate Daily Precip Total
08:29 AM 59.9°F15.5°C 48.9°F9.4°C 67% 9.0 mph E14.5 kmh E 14.0 mph22.5 kmh 30.43 in1030.5 mb 0.00 in0.0 mm 0.00 in0.0 mm 0.00 in0.0 mm
08:28 AM 59.7°F15.4°C 48.7°F9.3°C 67% 9.0 mph E14.5 kmh E 14.0 mph22.5 kmh 30.43 in1030.5 mb 0.00 in0.0 mm 0.00 in0.0 mm 0.00 in0.0 mm
08:27 AM 59.5°F15.3°C 48.6°F9.2°C 67% 9.0 mph E14.5 kmh E 14.0 mph22.5 kmh 30.43 in1030.5 mb 0.00 in0.0 mm 0.00 in0.0 mm 0.00 in0.0 mm
08:26 AM 59.5°F15.3°C 49.0°F9.4°C 68% 9.0 mph E14.5 kmh E 14.0 mph22.5 kmh 30.43 in1030.5 mb 0.00 in0.0 mm 0.00 in0.0 mm 0.00 in0.0 mm
08:25 AM 59.4°F15.2°C 48.8°F9.3°C 68% 9.0 mph ENE14.5 kmh ENE 14.0 mph22.5 kmh 30.43 in1030.5 mb 0.00 in0.0 mm 0.00 in0.0 mm 0.00 in0.0 mm
08:24 AM 59.4°F15.2°C 48.8°F9.3°C 68% 9.0 mph ENE14.5 kmh ENE 14.0 mph22.5 kmh 30.43 in1030.5 mb 0.00 in0.0 mm 0.00 in0.0 mm 0.00 in0.0 mm
08:23 AM 59.2°F15.1°C 48.6°F9.2°C 68% 9.0 mph ENE14.5 kmh ENE 14.0 mph22.5 kmh 30.43 in1030.5 mb 0.00 in0.0 mm 0.00 in0.0 mm 0.00 in0.0 mm
08:22 AM 59.2°F15.1°C 49.0°F9.4°C 69% 8.0 mph ENE12.9 kmh ENE 14.0 mph22.5 kmh 30.43 in1030.5 mb 0.00 in0.0 mm 0.00 in0.0 mm 0.00 in0.0 mm
08:21 AM 59.0°F15.0°C 48.4°F9.1°C 68% 8.0 mph ENE12.9 kmh ENE 14.0 mph22.5 kmh 30.43 in1030.5 mb 0.00 in0.0 mm 0.00 in0.0 mm 0.00 in0.0 mm
08:20 AM 59.0°F15.0°C 48.4°F9.1°C 68% 8.0 mph ENE12.9 kmh ENE 14.0 mph22.5 kmh 30.43 in1030.5 mb 0.00 in0.0 mm 0.00 in0.0 mm 0.00 in0.0 mm
08:19 AM 59.0°F15.0°C 48.8°F9.3°C 69% 8.0 mph ENE12.9 kmh ENE 14.0 mph22.5 kmh 30.43 in1030.5 mb 0.00 in0.0 mm 0.00 in0.0 mm 0.00 in0.0 mm
08:18 AM 58.8°F14.9°C 48.7°F9.3°C 69% 8.0 mph ENE12.9 kmh ENE 14.0 mph22.5 kmh 30.43 in1030.5 mb 0.00 in0.0 mm 0.00 in0.0 mm 0.00 in0.0 mm
08:17 AM 58.8°F14.9°C 48.7°F9.3°C 69% 8.0 mph ENE12.9 kmh ENE 14.0 mph22.5 kmh 30.43 in1030.5 mb 0.00 in0.0 mm 0.00 in0.0 mm 0.00 in0.0 mm
08:16 AM 58.8°F14.9°C 48.7°F9.3°C 69% 8.0 mph ENE12.9 kmh ENE 13.0 mph20.9 kmh 30.43 in1030.5 mb 0.00 in0.0 mm 0.00 in0.0 mm 0.00 in0.0 mm
08:15 AM 58.6°F14.8°C 48.5°F9.2°C 69% 7.0 mph ENE11.3 kmh ENE 13.0 mph20.9 kmh 30.43 in1030.5 mb 0.00 in0.0 mm 0.00 in0.0 mm 0.00 in0.0 mm
08:14 AM 58.6°F14.8°C 48.5°F9.2°C 69% 7.0 mph ENE11.3 kmh ENE 13.0 mph20.9 kmh 30.43 in1030.5 mb 0.00 in0.0 mm 0.00 in0.0 mm 0.00 in0.0 mm
08:13 AM 58.5°F14.7°C 48.7°F9.3°C 70% 7.0 mph ENE11.3 kmh ENE 12.0 mph19.3 kmh 30.43 in1030.5 mb 0.00 in0.0 mm 0.00 in0.0 mm 0.00 in0.0 mm
08:12 AM 58.5°F14.7°C 48.7°F9.3°C 70% 7.0 mph ENE11.3 kmh ENE 12.0 mph19.3 kmh 30.43 in1030.5 mb 0.00 in0.0 mm 0.00 in0.0 mm 0.00 in0.0 mm
08:11 AM 58.3°F14.6°C 48.5°F9.2°C 70% 7.0 mph ENE11.3 kmh ENE 12.0 mph19.3 kmh 30.43 in1030.5 mb 0.00 in0.0 mm 0.00 in0.0 mm 0.00 in0.0 mm
08:10 AM 58.3°F14.6°C 48.5°F9.2°C 70% 7.0 mph ENE11.3 kmh ENE 12.0 mph19.3 kmh 30.43 in1030.5 mb 0.00 in0.0 mm 0.00 in0.0 mm 0.00 in0.0 mm
08:09 AM 58.1°F14.5°C 48.4°F9.1°C 70% 7.0 mph ENE11.3 kmh ENE 10.0 mph16.1 kmh 30.43 in1030.5 mb 0.00 in0.0 mm 0.00 in0.0 mm 0.00 in0.0 mm
08:08 AM 58.1°F14.5°C 48.7°F9.3°C 71% 7.0 mph ENE11.3 kmh ENE 10.0 mph16.1 kmh 30.43 in1030.5 mb 0.00 in0.0 mm 0.00 in0.0 mm 0.00 in0.0 mm
08:07 AM 57.9°F14.4°C 48.6°F9.2°C 71% 7.0 mph ENE11.3 kmh ENE 10.0 mph16.1 kmh 30.43 in1030.5 mb 0.00 in0.0 mm 0.00 in0.0 mm 0.00 in0.0 mm
08:06 AM 57.9°F14.4°C 48.6°F9.2°C 71% 7.0 mph ENE11.3 kmh ENE 10.0 mph16.1 kmh 30.43 in1030.5 mb 0.00 in0.0 mm 0.00 in0.0 mm 0.00 in0.0 mm
08:05 AM 57.7°F14.3°C 48.4°F9.1°C 71% 8.0 mph ENE12.9 kmh ENE 11.0 mph17.7 kmh 30.43 in1030.5 mb 0.00 in0.0 mm 0.00 in0.0 mm 0.00 in0.0 mm
08:04 AM 57.7°F14.3°C 48.4°F9.1°C 71% 8.0 mph ENE12.9 kmh ENE 11.0 mph17.7 kmh 30.43 in1030.5 mb 0.00 in0.0 mm 0.00 in0.0 mm 0.00 in0.0 mm
08:03 AM 57.6°F14.2°C 48.2°F9.0°C 71% 8.0 mph ENE12.9 kmh ENE 11.0 mph17.7 kmh 30.43 in1030.5 mb 0.00 in0.0 mm 0.00 in0.0 mm 0.00 in0.0 mm
08:02 AM 57.6°F14.2°C 48.2°F9.0°C 71% 8.0 mph ENE12.9 kmh ENE 11.0 mph17.7 kmh 30.43 in1030.5 mb 0.00 in0.0 mm 0.00 in0.0 mm 0.00 in0.0 mm
08:01 AM 57.4°F14.1°C 48.1°F8.9°C 71% 8.0 mph ENE12.9 kmh ENE 11.0 mph17.7 kmh 30.43 in1030.5 mb 0.00 in0.0 mm 0.00 in0.0 mm 0.00 in0.0 mm
08:00 AM 57.4°F14.1°C 48.1°F8.9°C 71% 8.0 mph ENE12.9 kmh ENE 11.0 mph17.7 kmh 30.43 in1030.5 mb 0.00 in0.0 mm 0.00 in0.0 mm 0.00 in0.0 mm
07:59 AM 57.2°F14.0°C 47.9°F8.8°C 71% 8.0 mph ENE12.9 kmh ENE 12.0 mph19.3 kmh 30.43 in1030.5 mb 0.00 in0.0 mm 0.00 in0.0 mm 0.00 in0.0 mm
07:58 AM 57.0°F13.9°C 48.1°F8.9°C 72% 8.0 mph ENE12.9 kmh ENE 12.0 mph19.3 kmh 30.43 in1030.5 mb 0.00 in0.0 mm 0.00 in0.0 mm 0.00 in0.0 mm
07:57 AM 57.0°F13.9°C 48.1°F8.9°C 72% 8.0 mph ENE12.9 kmh ENE 12.0 mph19.3 kmh 30.43 in1030.5 mb 0.00 in0.0 mm 0.00 in0.0 mm 0.00 in0.0 mm
07:56 AM 56.8°F13.8°C 47.9°F8.8°C 72% 8.0 mph ENE12.9 kmh ENE 12.0 mph19.3 kmh 30.42 in1030.1 mb 0.00 in0.0 mm 0.00 in0.0 mm 0.00 in0.0 mm
07:55 AM 56.8°F13.8°C 47.9°F8.8°C 72% 8.0 mph ENE12.9 kmh ENE 12.0 mph19.3 kmh 30.43 in1030.5 mb 0.00 in0.0 mm 0.00 in0.0 mm 0.00 in0.0 mm
07:54 AM 56.7°F13.7°C 47.7°F8.7°C 72% 8.0 mph ENE12.9 kmh ENE 12.0 mph19.3 kmh 30.43 in1030.5 mb 0.00 in0.0 mm 0.00 in0.0 mm 0.00 in0.0 mm
07:53 AM 56.7°F13.7°C 47.7°F8.7°C 72% 8.0 mph ENE12.9 kmh ENE 12.0 mph19.3 kmh 30.43 in1030.5 mb 0.00 in0.0 mm 0.00 in0.0 mm 0.00 in0.0 mm
07:52 AM 56.7°F13.7°C 47.7°F8.7°C 72% 8.0 mph ENE12.9 kmh ENE 12.0 mph19.3 kmh 30.43 in1030.5 mb 0.00 in0.0 mm 0.00 in0.0 mm 0.00 in0.0 mm
07:51 AM 56.5°F13.6°C 47.9°F8.8°C 73% 8.0 mph ENE12.9 kmh ENE 12.0 mph19.3 kmh 30.43 in1030.5 mb 0.00 in0.0 mm 0.00 in0.0 mm 0.00 in0.0 mm
07:50 AM 56.5°F13.6°C 47.9°F8.8°C 73% 8.0 mph ENE12.9 kmh ENE 12.0 mph19.3 kmh 30.42 in1030.1 mb 0.00 in0.0 mm 0.00 in0.0 mm 0.00 in0.0 mm
07:49 AM 56.3°F13.5°C 47.8°F8.8°C 73% 8.0 mph ENE12.9 kmh ENE 11.0 mph17.7 kmh 30.43 in1030.5 mb 0.00 in0.0 mm 0.00 in0.0 mm 0.00 in0.0 mm
07:48 AM 56.1°F13.4°C 47.6°F8.7°C 73% 8.0 mph ENE12.9 kmh ENE 11.0 mph17.7 kmh 30.43 in1030.5 mb 0.00 in0.0 mm 0.00 in0.0 mm 0.00 in0.0 mm
07:47 AM 56.1°F13.4°C 47.6°F8.7°C 73% 9.0 mph ENE14.5 kmh ENE 11.0 mph17.7 kmh 30.43 in1030.5 mb 0.00 in0.0 mm 0.00 in0.0 mm 0.00 in0.0 mm
07:46 AM 55.9°F13.3°C 47.4°F8.6°C 73% 9.0 mph ENE14.5 kmh ENE 11.0 mph17.7 kmh 30.43 in1030.5 mb 0.00 in0.0 mm 0.00 in0.0 mm 0.00 in0.0 mm
07:45 AM 55.9°F13.3°C 47.4°F8.6°C 73% 9.0 mph ENE14.5 kmh ENE 12.0 mph19.3 kmh 30.43 in1030.5 mb 0.00 in0.0 mm 0.00 in0.0 mm 0.00 in0.0 mm
07:44 AM 55.9°F13.3°C 47.4°F8.6°C 73% 9.0 mph ENE14.5 kmh ENE 12.0 mph19.3 kmh 30.43 in1030.5 mb 0.00 in0.0 mm 0.00 in0.0 mm 0.00 in0.0 mm
07:43 AM 55.8°F13.2°C 47.2°F8.4°C 73% 9.0 mph ENE14.5 kmh ENE 12.0 mph19.3 kmh 30.43 in1030.5 mb 0.00 in0.0 mm 0.00 in0.0 mm 0.00 in0.0 mm
07:42 AM 55.8°F13.2°C 47.2°F8.4°C 73% 9.0 mph ENE14.5 kmh ENE 12.0 mph19.3 kmh 30.43 in1030.5 mb 0.00 in0.0 mm 0.00 in0.0 mm 0.00 in0.0 mm
07:41 AM 55.8°F13.2°C 47.6°F8.7°C 74% 9.0 mph ENE14.5 kmh ENE 14.0 mph22.5 kmh 30.42 in1030.1 mb 0.00 in0.0 mm 0.00 in0.0 mm 0.00 in0.0 mm
07:40 AM 55.6°F13.1°C 47.4°F8.6°C 74% 9.0 mph ENE14.5 kmh ENE 14.0 mph22.5 kmh 30.43 in1030.5 mb 0.00 in0.0 mm 0.00 in0.0 mm 0.00 in0.0 mm
07:39 AM 55.6°F13.1°C 47.4°F8.6°C 74% 9.0 mph ENE14.5 kmh ENE 14.0 mph22.5 kmh 30.43 in1030.5 mb 0.00 in0.0 mm 0.00 in0.0 mm 0.00 in0.0 mm
07:38 AM 55.6°F13.1°C 47.4°F8.6°C 74% 9.0 mph ENE14.5 kmh ENE 14.0 mph22.5 kmh 30.42 in1030.1 mb 0.00 in0.0 mm 0.00 in0.0 mm 0.00 in0.0 mm
07:37 AM 55.4°F13.0°C 47.2°F8.4°C 74% 9.0 mph ENE14.5 kmh ENE 14.0 mph22.5 kmh 30.43 in1030.5 mb 0.00 in0.0 mm 0.00 in0.0 mm 0.00 in0.0 mm
07:36 AM 55.4°F13.0°C 47.2°F8.4°C 74% 9.0 mph ENE14.5 kmh ENE 14.0 mph22.5 kmh 30.43 in1030.5 mb 0.00 in0.0 mm 0.00 in0.0 mm 0.00 in0.0 mm
07:35 AM 55.2°F12.9°C 47.1°F8.4°C 74% 9.0 mph ENE14.5 kmh ENE 14.0 mph22.5 kmh 30.43 in1030.5 mb 0.00 in0.0 mm 0.00 in0.0 mm 0.00 in0.0 mm
07:34 AM 55.2°F12.9°C 47.1°F8.4°C 74% 9.0 mph ENE14.5 kmh ENE 14.0 mph22.5 kmh 30.43 in1030.5 mb 0.00 in0.0 mm 0.00 in0.0 mm 0.00 in0.0 mm
07:33 AM 55.2°F12.9°C 47.1°F8.4°C 74% 9.0 mph ENE14.5 kmh ENE 14.0 mph22.5 kmh 30.43 in1030.5 mb 0.00 in0.0 mm 0.00 in0.0 mm 0.00 in0.0 mm
07:32 AM 55.2°F12.9°C 47.1°F8.4°C 74% 9.0 mph ENE14.5 kmh ENE 14.0 mph22.5 kmh 30.43 in1030.5 mb 0.00 in0.0 mm 0.00 in0.0 mm 0.00 in0.0 mm
07:31 AM 55.2°F12.9°C 47.1°F8.4°C 74% 9.0 mph ENE14.5 kmh ENE 13.0 mph20.9 kmh 30.43 in1030.5 mb 0.00 in0.0 mm 0.00 in0.0 mm 0.00 in0.0 mm
07:30 AM 55.2°F12.9°C 47.1°F8.4°C 74% 9.0 mph ENE14.5 kmh ENE 13.0 mph20.9 kmh 30.43 in1030.5 mb 0.00 in0.0 mm 0.00 in0.0 mm 0.00 in0.0 mm
07:29 AM 55.0°F12.8°C 46.9°F8.3°C 74% 9.0 mph ENE14.5 kmh ENE 13.0 mph20.9 kmh 30.43 in1030.5 mb 0.00 in0.0 mm 0.00 in0.0 mm 0.00 in0.0 mm
07:28 AM 55.0°F12.8°C 46.9°F8.3°C 74% 9.0 mph ENE14.5 kmh ENE 13.0 mph20.9 kmh 30.43 in1030.5 mb 0.00 in0.0 mm 0.00 in0.0 mm 0.00 in0.0 mm
07:27 AM 55.0°F12.8°C 47.3°F8.5°C 75% 9.0 mph ENE14.5 kmh ENE 13.0 mph20.9 kmh 30.43 in1030.5 mb 0.00 in0.0 mm 0.00 in0.0 mm 0.00 in0.0 mm
07:26 AM 54.9°F12.7°C 47.1°F8.4°C 75% 9.0 mph ENE14.5 kmh ENE 13.0 mph20.9 kmh 30.43 in1030.5 mb 0.00 in0.0 mm 0.00 in0.0 mm 0.00 in0.0 mm
07:25 AM 54.9°F12.7°C 47.1°F8.4°C 75% 9.0 mph ENE14.5 kmh ENE 13.0 mph20.9 kmh 30.43 in1030.5 mb 0.00 in0.0 mm 0.00 in0.0 mm 0.00 in0.0 mm
07:24 AM 54.7°F12.6°C 46.9°F8.3°C 75% 9.0 mph ENE14.5 kmh ENE 13.0 mph20.9 kmh 30.43 in1030.5 mb 0.00 in0.0 mm 0.00 in0.0 mm 0.00 in0.0 mm
07:23 AM 54.7°F12.6°C 46.9°F8.3°C 75% 9.0 mph ENE14.5 kmh ENE 13.0 mph20.9 kmh 30.42 in1030.1 mb 0.00 in0.0 mm 0.00 in0.0 mm 0.00 in0.0 mm
07:22 AM 54.7°F12.6°C 46.9°F8.3°C 75% 9.0 mph ENE14.5 kmh ENE 13.0 mph20.9 kmh 30.42 in1030.1 mb 0.00 in0.0 mm 0.00 in0.0 mm 0.00 in0.0 mm
07:21 AM 54.5°F12.5°C 46.7°F8.2°C 75% 9.0 mph ENE14.5 kmh ENE 13.0 mph20.9 kmh 30.42 in1030.1 mb 0.00 in0.0 mm 0.00 in0.0 mm 0.00 in0.0 mm
07:20 AM 54.5°F12.5°C 46.7°F8.2°C 75% 9.0 mph ENE14.5 kmh ENE 13.0 mph20.9 kmh 30.42 in1030.1 mb 0.00 in0.0 mm 0.00 in0.0 mm 0.00 in0.0 mm
07:19 AM 54.3°F12.4°C 46.6°F8.1°C 75% 9.0 mph ENE14.5 kmh ENE 13.0 mph20.9 kmh 30.42 in1030.1 mb 0.00 in0.0 mm 0.00 in0.0 mm 0.00 in0.0 mm
07:18 AM 54.3°F12.4°C 46.6°F8.1°C 75% 9.0 mph ENE14.5 kmh ENE 13.0 mph20.9 kmh 30.42 in1030.1 mb 0.00 in0.0 mm 0.00 in0.0 mm 0.00 in0.0 mm
07:17 AM 54.3°F12.4°C 46.6°F8.1°C 75% 9.0 mph ENE14.5 kmh ENE 13.0 mph20.9 kmh 30.42 in1030.1 mb 0.00 in0.0 mm 0.00 in0.0 mm 0.00 in0.0 mm
07:16 AM 54.1°F12.3°C 46.4°F8.0°C 75% 9.0 mph ENE14.5 kmh ENE 13.0 mph20.9 kmh 30.42 in1030.1 mb 0.00 in0.0 mm 0.00 in0.0 mm 0.00 in0.0 mm
07:15 AM 54.1°F12.3°C 46.4°F8.0°C 75% 9.0 mph ENE14.5 kmh ENE 13.0 mph20.9 kmh 30.42 in1030.1 mb 0.00 in0.0 mm 0.00 in0.0 mm 0.00 in0.0 mm
07:14 AM 54.1°F12.3°C 46.7°F8.2°C 76% 9.0 mph ENE14.5 kmh ENE 13.0 mph20.9 kmh 30.42 in1030.1 mb 0.00 in0.0 mm 0.00 in0.0 mm 0.00 in0.0 mm
07:13 AM 54.0°F12.2°C 46.6°F8.1°C 76% 9.0 mph ENE14.5 kmh ENE 13.0 mph20.9 kmh 30.42 in1030.1 mb 0.00 in0.0 mm 0.00 in0.0 mm 0.00 in0.0 mm
07:12 AM 54.0°F12.2°C 46.6°F8.1°C 76% 9.0 mph ENE14.5 kmh ENE 13.0 mph20.9 kmh 30.42 in1030.1 mb 0.00 in0.0 mm 0.00 in0.0 mm 0.00 in0.0 mm
07:11 AM 54.0°F12.2°C 46.6°F8.1°C 76% 9.0 mph ENE14.5 kmh ENE 14.0 mph22.5 kmh 30.42 in1030.1 mb 0.00 in0.0 mm 0.00 in0.0 mm 0.00 in0.0 mm
07:10 AM 53.8°F12.1°C 46.4°F8.0°C 76% 9.0 mph ENE14.5 kmh ENE 14.0 mph22.5 kmh 30.42 in1030.1 mb 0.00 in0.0 mm 0.00 in0.0 mm 0.00 in0.0 mm
07:09 AM 53.8°F12.1°C 46.4°F8.0°C 76% 9.0 mph ENE14.5 kmh ENE 14.0 mph22.5 kmh 30.42 in1030.1 mb 0.00 in0.0 mm 0.00 in0.0 mm 0.00 in0.0 mm
07:08 AM 53.8°F12.1°C 46.4°F8.0°C 76% 9.0 mph ENE14.5 kmh ENE 14.0 mph22.5 kmh 30.42 in1030.1 mb 0.00 in0.0 mm 0.00 in0.0 mm 0.00 in0.0 mm
07:07 AM 53.6°F12.0°C 46.6°F8.1°C 77% 9.0 mph ENE14.5 kmh ENE 14.0 mph22.5 kmh 30.42 in1030.1 mb 0.00 in0.0 mm 0.00 in0.0 mm 0.00 in0.0 mm
07:06 AM 53.4°F11.9°C 46.4°F8.0°C 77% 9.0 mph ENE14.5 kmh ENE 14.0 mph22.5 kmh 30.42 in1030.1 mb 0.00 in0.0 mm 0.00 in0.0 mm 0.00 in0.0 mm
07:05 AM 53.4°F11.9°C 46.4°F8.0°C 77% 9.0 mph ENE14.5 kmh ENE 14.0 mph22.5 kmh 30.42 in1030.1 mb 0.00 in0.0 mm 0.00 in0.0 mm 0.00 in0.0 mm
07:04 AM 53.4°F11.9°C 46.4°F8.0°C 77% 8.0 mph ENE12.9 kmh ENE 14.0 mph22.5 kmh 30.42 in1030.1 mb 0.00 in0.0 mm 0.00 in0.0 mm 0.00 in0.0 mm
07:03 AM 53.2°F11.8°C 46.2°F7.9°C 77% 8.0 mph ENE12.9 kmh ENE 14.0 mph22.5 kmh 30.42 in1030.1 mb 0.00 in0.0 mm 0.00 in0.0 mm 0.00 in0.0 mm
07:02 AM 53.2°F11.8°C 46.2°F7.9°C 77% 8.0 mph ENE12.9 kmh ENE 14.0 mph22.5 kmh 30.42 in1030.1 mb 0.00 in0.0 mm 0.00 in0.0 mm 0.00 in0.0 mm
07:01 AM 53.2°F11.8°C 46.2°F7.9°C 77% 8.0 mph ENE12.9 kmh ENE 13.0 mph20.9 kmh 30.42 in1030.1 mb 0.00 in0.0 mm 0.00 in0.0 mm 0.00 in0.0 mm
07:00 AM 53.1°F11.7°C 46.0°F7.8°C 77% 8.0 mph ENE12.9 kmh ENE 13.0 mph20.9 kmh 30.42 in1030.1 mb 0.00 in0.0 mm 0.00 in0.0 mm 0.00 in0.0 mm
06:59 AM 53.1°F11.7°C 46.0°F7.8°C 77% 8.0 mph ENE12.9 kmh ENE 13.0 mph20.9 kmh 30.42 in1030.1 mb 0.00 in0.0 mm 0.00 in0.0 mm 0.00 in0.0 mm
06:58 AM 53.1°F11.7°C 46.0°F7.8°C 77% 8.0 mph ENE12.9 kmh ENE 13.0 mph20.9 kmh 30.42 in1030.1 mb 0.00 in0.0 mm 0.00 in0.0 mm 0.00 in0.0 mm
06:57 AM 52.9°F11.6°C 45.9°F7.7°C 77% 8.0 mph ENE12.9 kmh ENE 13.0 mph20.9 kmh 30.42 in1030.1 mb 0.00 in0.0 mm 0.00 in0.0 mm 0.00 in0.0 mm
06:56 AM 52.9°F11.6°C 45.9°F7.7°C 77% 8.0 mph ENE12.9 kmh ENE 13.0 mph20.9 kmh 30.42 in1030.1 mb 0.00 in0.0 mm 0.00 in0.0 mm 0.00 in0.0 mm
06:55 AM 52.9°F11.6°C 45.9°F7.7°C 77% 8.0 mph ENE12.9 kmh ENE 13.0 mph20.9 kmh 30.42 in1030.1 mb 0.00 in0.0 mm 0.00 in0.0 mm 0.00 in0.0 mm
06:54 AM 52.9°F11.6°C 45.9°F7.7°C 77% 8.0 mph ENE12.9 kmh ENE 13.0 mph20.9 kmh 30.42 in1030.1 mb 0.00 in0.0 mm 0.00 in0.0 mm 0.00 in0.0 mm
06:53 AM 52.9°F11.6°C 45.9°F7.7°C 77% 8.0 mph ENE12.9 kmh ENE 13.0 mph20.9 kmh 30.42 in1030.1 mb 0.00 in0.0 mm 0.00 in0.0 mm 0.00 in0.0 mm
06:52 AM 52.9°F11.6°C 45.9°F7.7°C 77% 8.0 mph ENE12.9 kmh ENE 13.0 mph20.9 kmh 30.42 in1030.1 mb 0.00 in0.0 mm 0.00 in0.0 mm 0.00 in0.0 mm
06:51 AM 52.9°F11.6°C 45.9°F7.7°C 77% 8.0 mph ENE12.9 kmh ENE 13.0 mph20.9 kmh 30.42 in1030.1 mb 0.00 in0.0 mm 0.00 in0.0 mm 0.00 in0.0 mm
06:50 AM 52.9°F11.6°C 45.9°F7.7°C 77% 8.0 mph ENE12.9 kmh ENE 13.0 mph20.9 kmh 30.42 in1030.1 mb 0.00 in0.0 mm 0.00 in0.0 mm 0.00 in0.0 mm
06:49 AM 52.9°F11.6°C 45.9°F7.7°C 77% 8.0 mph ENE12.9 kmh ENE 13.0 mph20.9 kmh 30.42 in1030.1 mb 0.00 in0.0 mm 0.00 in0.0 mm 0.00 in0.0 mm
06:48 AM 52.9°F11.6°C 45.9°F7.7°C 77% 8.0 mph ENE12.9 kmh ENE 13.0 mph20.9 kmh 30.42 in1030.1 mb 0.00 in0.0 mm 0.00 in0.0 mm 0.00 in0.0 mm
06:47 AM 52.9°F11.6°C 45.9°F7.7°C 77% 8.0 mph ENE12.9 kmh ENE 13.0 mph20.9 kmh 30.42 in1030.1 mb 0.00 in0.0 mm 0.00 in0.0 mm 0.00 in0.0 mm
06:46 AM 52.9°F11.6°C 45.9°F7.7°C 77% 8.0 mph ENE12.9 kmh ENE 13.0 mph20.9 kmh 30.42 in1030.1 mb 0.00 in0.0 mm 0.00 in0.0 mm 0.00 in0.0 mm
06:45 AM 52.9°F11.6°C 46.2°F7.9°C 78% 8.0 mph ENE12.9 kmh ENE 13.0 mph20.9 kmh 30.42 in1030.1 mb 0.00 in0.0 mm 0.00 in0.0 mm 0.00 in0.0 mm
06:44 AM 52.9°F11.6°C 45.9°F7.7°C 77% 9.0 mph ENE14.5 kmh ENE 11.0 mph17.7 kmh 30.42 in1030.1 mb 0.00 in0.0 mm 0.00 in0.0 mm 0.00 in0.0 mm
06:43 AM 52.9°F11.6°C 46.2°F7.9°C 78% 9.0 mph ENE14.5 kmh ENE 11.0 mph17.7 kmh 30.42 in1030.1 mb 0.00 in0.0 mm 0.00 in0.0 mm 0.00 in0.0 mm
06:42 AM 52.9°F11.6°C 46.2°F7.9°C 78% 9.0 mph ENE14.5 kmh ENE 12.0 mph19.3 kmh 30.42 in1030.1 mb 0.00 in0.0 mm 0.00 in0.0 mm 0.00 in0.0 mm
06:41 AM 52.9°F11.6°C 46.2°F7.9°C 78% 9.0 mph ENE14.5 kmh ENE 12.0 mph19.3 kmh 30.42 in1030.1 mb 0.00 in0.0 mm 0.00 in0.0 mm 0.00 in0.0 mm
06:40 AM 52.7°F11.5°C 46.0°F7.8°C 78% 9.0 mph ENE14.5 kmh ENE 12.0 mph19.3 kmh 30.42 in1030.1 mb 0.00 in0.0 mm 0.00 in0.0 mm 0.00 in0.0 mm
06:39 AM 52.7°F11.5°C 46.0°F7.8°C 78% 9.0 mph ENE14.5 kmh ENE 12.0 mph19.3 kmh 30.42 in1030.1 mb 0.00 in0.0 mm 0.00 in0.0 mm 0.00 in0.0 mm
06:38 AM 52.7°F11.5°C 46.0°F7.8°C 78% 9.0 mph ENE14.5 kmh ENE 12.0 mph19.3 kmh 30.42 in1030.1 mb 0.00 in0.0 mm 0.00 in0.0 mm 0.00 in0.0 mm
06:37 AM 52.5°F11.4°C 45.9°F7.7°C 78% 9.0 mph ENE14.5 kmh ENE 12.0 mph19.3 kmh 30.42 in1030.1 mb 0.00 in0.0 mm 0.00 in0.0 mm 0.00 in0.0 mm
06:36 AM 52.5°F11.4°C 45.9°F7.7°C 78% 9.0 mph ENE14.5 kmh ENE 12.0 mph19.3 kmh 30.42 in1030.1 mb 0.00 in0.0 mm 0.00 in0.0 mm 0.00 in0.0 mm
06:35 AM 52.5°F11.4°C 45.9°F7.7°C 78% 9.0 mph ENE14.5 kmh ENE 13.0 mph20.9 kmh 30.42 in1030.1 mb 0.00 in0.0 mm 0.00 in0.0 mm 0.00 in0.0 mm
06:34 AM 52.5°F11.4°C 45.9°F7.7°C 78% 9.0 mph ENE14.5 kmh ENE 13.0 mph20.9 kmh 30.42 in1030.1 mb 0.00 in0.0 mm 0.00 in0.0 mm 0.00 in0.0 mm
06:33 AM 52.5°F11.4°C 45.9°F7.7°C 78% 9.0 mph ENE14.5 kmh ENE 13.0 mph20.9 kmh 30.42 in1030.1 mb 0.00 in0.0 mm 0.00 in0.0 mm 0.00 in0.0 mm
06:32 AM 52.5°F11.4°C 45.9°F7.7°C 78% 9.0 mph ENE14.5 kmh ENE 13.0 mph20.9 kmh 30.42 in1030.1 mb 0.00 in0.0 mm 0.00 in0.0 mm 0.00 in0.0 mm
06:31 AM 52.3°F11.3°C 46.0°F7.8°C 79% 9.0 mph ENE14.5 kmh ENE 13.0 mph20.9 kmh 30.42 in1030.1 mb 0.00 in0.0 mm 0.00 in0.0 mm 0.00 in0.0 mm
06:30 AM 52.3°F11.3°C 46.0°F7.8°C 79% 9.0 mph ENE14.5 kmh ENE 13.0 mph20.9 kmh 30.42 in1030.1 mb 0.00 in0.0 mm 0.00 in0.0 mm 0.00 in0.0 mm
06:29 AM 52.3°F11.3°C 46.0°F7.8°C 79% 9.0 mph ENE14.5 kmh ENE 13.0 mph20.9 kmh 30.42 in1030.1 mb 0.00 in0.0 mm 0.00 in0.0 mm 0.00 in0.0 mm
06:28 AM 52.3°F11.3°C 46.0°F7.8°C 79% 9.0 mph ENE14.5 kmh ENE 13.0 mph20.9 kmh 30.42 in1030.1 mb 0.00 in0.0 mm 0.00 in0.0 mm 0.00 in0.0 mm
06:27 AM 52.3°F11.3°C 46.0°F7.8°C 79% 9.0 mph ENE14.5 kmh ENE 13.0 mph20.9 kmh 30.42 in1030.1 mb 0.00 in0.0 mm 0.00 in0.0 mm 0.00 in0.0 mm
06:26 AM 52.2°F11.2°C 45.8°F7.7°C 79% 9.0 mph ENE14.5 kmh ENE 13.0 mph20.9 kmh 30.42 in1030.1 mb 0.00 in0.0 mm 0.00 in0.0 mm 0.00 in0.0 mm
06:25 AM 52.2°F11.2°C 45.8°F7.7°C 79% 9.0 mph ENE14.5 kmh ENE 12.0 mph19.3 kmh 30.42 in1030.1 mb 0.00 in0.0 mm 0.00 in0.0 mm 0.00 in0.0 mm
06:24 AM 52.2°F11.2°C 45.8°F7.7°C 79% 9.0 mph ENE14.5 kmh ENE 12.0 mph19.3 kmh 30.42 in1030.1 mb 0.00 in0.0 mm 0.00 in0.0 mm 0.00 in0.0 mm
06:23 AM 52.2°F11.2°C 45.8°F7.7°C 79% 9.0 mph ENE14.5 kmh ENE 12.0 mph19.3 kmh 30.42 in1030.1 mb 0.00 in0.0 mm 0.00 in0.0 mm 0.00 in0.0 mm
06:22 AM 52.2°F11.2°C 45.8°F7.7°C 79% 9.0 mph ENE14.5 kmh ENE 13.0 mph20.9 kmh 30.42 in1030.1 mb 0.00 in0.0 mm 0.00 in0.0 mm 0.00 in0.0 mm
06:21 AM 52.2°F11.2°C 45.8°F7.7°C 79% 9.0 mph ENE14.5 kmh ENE 13.0 mph20.9 kmh 30.42 in1030.1 mb 0.00 in0.0 mm 0.00 in0.0 mm 0.00 in0.0 mm
06:20 AM 52.2°F11.2°C 45.8°F7.7°C 79% 9.0 mph ENE14.5 kmh ENE 13.0 mph20.9 kmh 30.42 in1030.1 mb 0.00 in0.0 mm 0.00 in0.0 mm 0.00 in0.0 mm
06:19 AM 52.2°F11.2°C 45.8°F7.7°C 79% 8.0 mph ENE12.9 kmh ENE 13.0 mph20.9 kmh 30.42 in1030.1 mb 0.00 in0.0 mm 0.00 in0.0 mm 0.00 in0.0 mm
06:18 AM 52.0°F11.1°C 45.7°F7.6°C 79% 8.0 mph ENE12.9 kmh ENE 13.0 mph20.9 kmh 30.42 in1030.1 mb 0.00 in0.0 mm 0.00 in0.0 mm 0.00 in0.0 mm
06:17 AM 52.0°F11.1°C 45.7°F7.6°C 79% 8.0 mph ENE12.9 kmh ENE 13.0 mph20.9 kmh 30.42 in1030.1 mb 0.00 in0.0 mm 0.00 in0.0 mm 0.00 in0.0 mm
06:16 AM 52.0°F11.1°C 46.0°F7.8°C 80% 8.0 mph ENE12.9 kmh ENE 13.0 mph20.9 kmh 30.42 in1030.1 mb 0.00 in0.0 mm 0.00 in0.0 mm 0.00 in0.0 mm
06:15 AM 52.0°F11.1°C 46.0°F7.8°C 80% 8.0 mph ENE12.9 kmh ENE 13.0 mph20.9 kmh 30.42 in1030.1 mb 0.00 in0.0 mm 0.00 in0.0 mm 0.00 in0.0 mm
06:14 AM 52.0°F11.1°C 46.0°F7.8°C 80% 8.0 mph ENE12.9 kmh ENE 13.0 mph20.9 kmh 30.42 in1030.1 mb 0.00 in0.0 mm 0.00 in0.0 mm 0.00 in0.0 mm
06:13 AM 52.0°F11.1°C 46.0°F7.8°C 80% 8.0 mph ENE12.9 kmh ENE 13.0 mph20.9 kmh 30.42 in1030.1 mb 0.00 in0.0 mm 0.00 in0.0 mm 0.00 in0.0 mm
06:12 AM 52.0°F11.1°C 46.0°F7.8°C 80% 8.0 mph ENE12.9 kmh ENE 12.0 mph19.3 kmh 30.42 in1030.1 mb 0.00 in0.0 mm 0.00 in0.0 mm 0.00 in0.0 mm
06:11 AM 52.0°F11.1°C 46.0°F7.8°C 80% 8.0 mph ENE12.9 kmh ENE 12.0 mph19.3 kmh 30.42 in1030.1 mb 0.00 in0.0 mm 0.00 in0.0 mm 0.00 in0.0 mm
06:10 AM 51.8°F11.0°C 45.8°F7.7°C 80% 8.0 mph ENE12.9 kmh ENE 11.0 mph17.7 kmh 30.42 in1030.1 mb 0.00 in0.0 mm 0.00 in0.0 mm 0.00 in0.0 mm
06:09 AM 51.8°F11.0°C 45.8°F7.7°C 80% 8.0 mph ENE12.9 kmh ENE 11.0 mph17.7 kmh 30.42 in1030.1 mb 0.00 in0.0 mm 0.00 in0.0 mm 0.00 in0.0 mm
06:08 AM 51.6°F10.9°C 45.7°F7.6°C 80% 8.0 mph ENE12.9 kmh ENE 11.0 mph17.7 kmh 30.42 in1030.1 mb 0.00 in0.0 mm 0.00 in0.0 mm 0.00 in0.0 mm
06:07 AM 51.6°F10.9°C 45.7°F7.6°C 80% 8.0 mph ENE12.9 kmh ENE 11.0 mph17.7 kmh 30.41 in1029.8 mb 0.00 in0.0 mm 0.00 in0.0 mm 0.00 in0.0 mm
06:06 AM 51.6°F10.9°C 46.0°F7.8°C 81% 8.0 mph ENE12.9 kmh ENE 11.0 mph17.7 kmh 30.41 in1029.8 mb 0.00 in0.0 mm 0.00 in0.0 mm 0.00 in0.0 mm
06:05 AM 51.6°F10.9°C 46.0°F7.8°C 81% 8.0 mph ENE12.9 kmh ENE 11.0 mph17.7 kmh 30.41 in1029.8 mb 0.00 in0.0 mm 0.00 in0.0 mm 0.00 in0.0 mm
06:04 AM 51.6°F10.9°C 46.0°F7.8°C 81% 8.0 mph ENE12.9 kmh ENE 11.0 mph17.7 kmh 30.41 in1029.8 mb 0.00 in0.0 mm 0.00 in0.0 mm 0.00 in0.0 mm
06:03 AM 51.4°F10.8°C 45.8°F7.7°C 81% 8.0 mph ENE12.9 kmh ENE 11.0 mph17.7 kmh 30.41 in1029.8 mb 0.00 in0.0 mm 0.00 in0.0 mm 0.00 in0.0 mm
06:02 AM 51.4°F10.8°C 45.8°F7.7°C 81% 8.0 mph ENE12.9 kmh ENE 11.0 mph17.7 kmh 30.41 in1029.8 mb 0.00 in0.0 mm 0.00 in0.0 mm 0.00 in0.0 mm
06:01 AM 51.4°F10.8°C 45.8°F7.7°C 81% 8.0 mph ENE12.9 kmh ENE 11.0 mph17.7 kmh 30.41 in1029.8 mb 0.00 in0.0 mm 0.00 in0.0 mm 0.00 in0.0 mm
06:00 AM 51.4°F10.8°C 45.8°F7.7°C 81% 7.0 mph ENE11.3 kmh ENE 11.0 mph17.7 kmh 30.41 in1029.8 mb 0.00 in0.0 mm 0.00 in0.0 mm 0.00 in0.0 mm
05:59 AM 51.4°F10.8°C 45.8°F7.7°C 81% 7.0 mph ENE11.3 kmh ENE 11.0 mph17.7 kmh 30.41 in1029.8 mb 0.00 in0.0 mm 0.00 in0.0 mm 0.00 in0.0 mm
05:58 AM 51.3°F10.7°C 45.6°F7.6°C 81% 7.0 mph ENE11.3 kmh ENE 11.0 mph17.7 kmh 30.41 in1029.8 mb 0.00 in0.0 mm 0.00 in0.0 mm 0.00 in0.0 mm
05:57 AM 51.3°F10.7°C 45.6°F7.6°C 81% 7.0 mph ENE11.3 kmh ENE 11.0 mph17.7 kmh 30.41 in1029.8 mb 0.00 in0.0 mm 0.00 in0.0 mm 0.00 in0.0 mm
05:56 AM 51.3°F10.7°C 46.0°F7.8°C 82% 7.0 mph ENE11.3 kmh ENE 11.0 mph17.7 kmh 30.41 in1029.8 mb 0.00 in0.0 mm 0.00 in0.0 mm 0.00 in0.0 mm
05:55 AM 51.3°F10.7°C 46.0°F7.8°C 82% 7.0 mph ENE11.3 kmh ENE 11.0 mph17.7 kmh 30.41 in1029.8 mb 0.00 in0.0 mm 0.00 in0.0 mm 0.00 in0.0 mm
05:54 AM 51.3°F10.7°C 46.0°F7.8°C 82% 7.0 mph ENE11.3 kmh ENE 11.0 mph17.7 kmh 30.41 in1029.8 mb 0.00 in0.0 mm 0.00 in0.0 mm 0.00 in0.0 mm
05:53 AM 51.3°F10.7°C 46.0°F7.8°C 82% 7.0 mph ENE11.3 kmh ENE 11.0 mph17.7 kmh 30.41 in1029.8 mb 0.00 in0.0 mm 0.00 in0.0 mm 0.00 in0.0 mm
05:52 AM 51.3°F10.7°C 46.0°F7.8°C 82% 7.0 mph ENE11.3 kmh ENE 11.0 mph17.7 kmh 30.41 in1029.8 mb 0.00 in0.0 mm 0.00 in0.0 mm 0.00 in0.0 mm
05:51 AM 51.3°F10.7°C 46.0°F7.8°C 82% 7.0 mph ENE11.3 kmh ENE 11.0 mph17.7 kmh 30.41 in1029.8 mb 0.00 in0.0 mm 0.00 in0.0 mm 0.00 in0.0 mm
05:50 AM 51.3°F10.7°C 46.0°F7.8°C 82% 7.0 mph ENE11.3 kmh ENE 11.0 mph17.7 kmh 30.41 in1029.8 mb 0.00 in0.0 mm 0.00 in0.0 mm 0.00 in0.0 mm
05:49 AM 51.3°F10.7°C 46.0°F7.8°C 82% 7.0 mph ENE11.3 kmh ENE 11.0 mph17.7 kmh 30.41 in1029.8 mb 0.00 in0.0 mm 0.00 in0.0 mm 0.00 in0.0 mm
05:48 AM 51.1°F10.6°C 45.8°F7.7°C 82% 7.0 mph ENE11.3 kmh ENE 11.0 mph17.7 kmh 30.41 in1029.8 mb 0.00 in0.0 mm 0.00 in0.0 mm 0.00 in0.0 mm
05:47 AM 51.1°F10.6°C 45.8°F7.7°C 82% 7.0 mph ENE11.3 kmh ENE 11.0 mph17.7 kmh 30.41 in1029.8 mb 0.00 in0.0 mm 0.00 in0.0 mm 0.00 in0.0 mm
05:46 AM 51.1°F10.6°C 45.8°F7.7°C 82% 7.0 mph ENE11.3 kmh ENE 10.0 mph16.1 kmh 30.41 in1029.8 mb 0.00 in0.0 mm 0.00 in0.0 mm 0.00 in0.0 mm
05:45 AM 51.1°F10.6°C 45.8°F7.7°C 82% 7.0 mph ENE11.3 kmh ENE 11.0 mph17.7 kmh 30.41 in1029.8 mb 0.00 in0.0 mm 0.00 in0.0 mm 0.00 in0.0 mm
05:44 AM 51.1°F10.6°C 45.8°F7.7°C 82% 7.0 mph ENE11.3 kmh ENE 11.0 mph17.7 kmh 30.41 in1029.8 mb 0.00 in0.0 mm 0.00 in0.0 mm 0.00 in0.0 mm
05:43 AM 51.1°F10.6°C 45.8°F7.7°C 82% 7.0 mph ENE11.3 kmh ENE 11.0 mph17.7 kmh 30.41 in1029.8 mb 0.00 in0.0 mm 0.00 in0.0 mm 0.00 in0.0 mm
05:42 AM 51.1°F10.6°C 45.8°F7.7°C 82% 7.0 mph ENE11.3 kmh ENE 11.0 mph17.7 kmh 30.41 in1029.8 mb 0.00 in0.0 mm 0.00 in0.0 mm 0.00 in0.0 mm
05:41 AM 51.3°F10.7°C 46.0°F7.8°C 82% 7.0 mph ENE11.3 kmh ENE 11.0 mph17.7 kmh 30.41 in1029.8 mb 0.00 in0.0 mm 0.00 in0.0 mm 0.00 in0.0 mm
05:40 AM 51.1°F10.6°C 45.8°F7.7°C 82% 7.0 mph ENE11.3 kmh ENE 11.0 mph17.7 kmh 30.41 in1029.8 mb 0.00 in0.0 mm 0.00 in0.0 mm 0.00 in0.0 mm
05:39 AM 51.3°F10.7°C 46.0°F7.8°C 82% 8.0 mph ENE12.9 kmh ENE 11.0 mph17.7 kmh 30.41 in1029.8 mb 0.00 in0.0 mm 0.00 in0.0 mm 0.00 in0.0 mm
05:38 AM 51.3°F10.7°C 46.0°F7.8°C 82% 8.0 mph ENE12.9 kmh ENE 11.0 mph17.7 kmh 30.41 in1029.8 mb 0.00 in0.0 mm 0.00 in0.0 mm 0.00 in0.0 mm
05:37 AM 51.3°F10.7°C 46.0°F7.8°C 82% 8.0 mph ENE12.9 kmh ENE 11.0 mph17.7 kmh 30.41 in1029.8 mb 0.00 in0.0 mm 0.00 in0.0 mm 0.00 in0.0 mm
05:36 AM 51.1°F10.6°C 45.8°F7.7°C 82% 8.0 mph ENE12.9 kmh ENE 11.0 mph17.7 kmh 30.41 in1029.8 mb 0.00 in0.0 mm 0.00 in0.0 mm 0.00 in0.0 mm
05:35 AM 51.3°F10.7°C 46.0°F7.8°C 82% 8.0 mph ENE12.9 kmh ENE 11.0 mph17.7 kmh 30.41 in1029.8 mb 0.00 in0.0 mm 0.00 in0.0 mm 0.00 in0.0 mm
05:34 AM 51.3°F10.7°C 46.0°F7.8°C 82% 8.0 mph ENE12.9 kmh ENE 11.0 mph17.7 kmh 30.41 in1029.8 mb 0.00 in0.0 mm 0.00 in0.0 mm 0.00 in0.0 mm
05:33 AM 51.3°F10.7°C 46.0°F7.8°C 82% 8.0 mph ENE12.9 kmh ENE 11.0 mph17.7 kmh 30.41 in1029.8 mb 0.00 in0.0 mm 0.00 in0.0 mm 0.00 in0.0 mm
05:32 AM 51.1°F10.6°C 45.8°F7.7°C 82% 8.0 mph ENE12.9 kmh ENE 11.0 mph17.7 kmh 30.41 in1029.8 mb 0.00 in0.0 mm 0.00 in0.0 mm 0.00 in0.0 mm
05:31 AM 51.3°F10.7°C 46.0°F7.8°C 82% 8.0 mph ENE12.9 kmh ENE 11.0 mph17.7 kmh 30.41 in1029.8 mb 0.00 in0.0 mm 0.00 in0.0 mm 0.00 in0.0 mm
05:30 AM 51.3°F10.7°C 46.0°F7.8°C 82% 8.0 mph ENE12.9 kmh ENE 11.0 mph17.7 kmh 30.41 in1029.8 mb 0.00 in0.0 mm 0.00 in0.0 mm 0.00 in0.0 mm
05:29 AM 51.3°F10.7°C 46.0°F7.8°C 82% 8.0 mph ENE12.9 kmh ENE 11.0 mph17.7 kmh 30.41 in1029.8 mb 0.00 in0.0 mm 0.00 in0.0 mm 0.00 in0.0 mm
05:28 AM 51.3°F10.7°C 46.0°F7.8°C 82% 8.0 mph ENE12.9 kmh ENE 11.0 mph17.7 kmh 30.41 in1029.8 mb 0.00 in0.0 mm 0.00 in0.0 mm 0.00 in0.0 mm
05:27 AM 51.3°F10.7°C 46.0°F7.8°C 82% 8.0 mph ENE12.9 kmh ENE 11.0 mph17.7 kmh 30.41 in1029.8 mb 0.00 in0.0 mm 0.00 in0.0 mm 0.00 in0.0 mm
05:26 AM 51.3°F10.7°C 46.0°F7.8°C 82% 8.0 mph ENE12.9 kmh ENE 11.0 mph17.7 kmh 30.41 in1029.8 mb 0.00 in0.0 mm 0.00 in0.0 mm 0.00 in0.0 mm
05:25 AM 51.3°F10.7°C 46.0°F7.8°C 82% 8.0 mph ENE12.9 kmh ENE 11.0 mph17.7 kmh 30.41 in1029.8 mb 0.00 in0.0 mm 0.00 in0.0 mm 0.00 in0.0 mm
05:24 AM 51.3°F10.7°C 46.0°F7.8°C 82% 8.0 mph ENE12.9 kmh ENE 11.0 mph17.7 kmh 30.41 in1029.8 mb 0.00 in0.0 mm 0.00 in0.0 mm 0.00 in0.0 mm
05:23 AM 51.3°F10.7°C 46.0°F7.8°C 82% 8.0 mph E12.9 kmh E 11.0 mph17.7 kmh 30.41 in1029.8 mb 0.00 in0.0 mm 0.00 in0.0 mm 0.00 in0.0 mm
05:22 AM 51.3°F10.7°C 46.0°F7.8°C 82% 8.0 mph ENE12.9 kmh ENE 11.0 mph17.7 kmh 30.41 in1029.8 mb 0.00 in0.0 mm 0.00 in0.0 mm 0.00 in0.0 mm
05:21 AM 51.3°F10.7°C 46.0°F7.8°C 82% 8.0 mph E12.9 kmh E 11.0 mph17.7 kmh 30.41 in1029.8 mb 0.00 in0.0 mm 0.00 in0.0 mm 0.00 in0.0 mm
05:20 AM 51.3°F10.7°C 46.0°F7.8°C 82% 8.0 mph ENE12.9 kmh ENE 11.0 mph17.7 kmh 30.41 in1029.8 mb 0.00 in0.0 mm 0.00 in0.0 mm 0.00 in0.0 mm
05:19 AM 51.3°F10.7°C 46.0°F7.8°C 82% 8.0 mph ENE12.9 kmh ENE 11.0 mph17.7 kmh 30.41 in1029.8 mb 0.00 in0.0 mm 0.00 in0.0 mm 0.00 in0.0 mm
05:18 AM 51.3°F10.7°C 46.0°F7.8°C 82% 8.0 mph ENE12.9 kmh ENE 12.0 mph19.3 kmh 30.41 in1029.8 mb 0.00 in0.0 mm 0.00 in0.0 mm 0.00 in0.0 mm
05:17 AM 51.3°F10.7°C 46.0°F7.8°C 82% 8.0 mph ENE12.9 kmh ENE 12.0 mph19.3 kmh 30.41 in1029.8 mb 0.00 in0.0 mm 0.00 in0.0 mm 0.00 in0.0 mm
05:16 AM 51.3°F10.7°C 46.0°F7.8°C 82% 8.0 mph ENE12.9 kmh ENE 12.0 mph19.3 kmh 30.41 in1029.8 mb 0.00 in0.0 mm 0.00 in0.0 mm 0.00 in0.0 mm
05:15 AM 51.3°F10.7°C 46.0°F7.8°C 82% 8.0 mph ENE12.9 kmh ENE 12.0 mph19.3 kmh 30.41 in1029.8 mb 0.00 in0.0 mm 0.00 in0.0 mm 0.00 in0.0 mm
05:14 AM 51.3°F10.7°C 46.0°F7.8°C 82% 8.0 mph ENE12.9 kmh ENE 12.0 mph19.3 kmh 30.41 in1029.8 mb 0.00 in0.0 mm 0.00 in0.0 mm 0.00 in0.0 mm
05:13 AM 51.3°F10.7°C 46.0°F7.8°C 82% 8.0 mph ENE12.9 kmh ENE 12.0 mph19.3 kmh 30.41 in1029.8 mb 0.00 in0.0 mm 0.00 in0.0 mm 0.00 in0.0 mm
05:12 AM 51.3°F10.7°C 46.0°F7.8°C 82% 8.0 mph ENE12.9 kmh ENE 12.0 mph19.3 kmh 30.41 in1029.8 mb 0.00 in0.0 mm 0.00 in0.0 mm 0.00 in0.0 mm
05:11 AM 51.3°F10.7°C 46.0°F7.8°C 82% 8.0 mph ENE12.9 kmh ENE 12.0 mph19.3 kmh 30.41 in1029.8 mb 0.00 in0.0 mm 0.00 in0.0 mm 0.00 in0.0 mm
05:10 AM 51.3°F10.7°C 46.0°F7.8°C 82% 8.0 mph ENE12.9 kmh ENE 12.0 mph19.3 kmh 30.41 in1029.8 mb 0.00 in0.0 mm 0.00 in0.0 mm 0.00 in0.0 mm
05:09 AM 51.3°F10.7°C 46.0°F7.8°C 82% 8.0 mph ENE12.9 kmh ENE 12.0 mph19.3 kmh 30.41 in1029.8 mb 0.00 in0.0 mm 0.00 in0.0 mm 0.00 in0.0 mm
05:08 AM 51.3°F10.7°C 46.0°F7.8°C 82% 8.0 mph ENE12.9 kmh ENE 11.0 mph17.7 kmh 30.41 in1029.8 mb 0.00 in0.0 mm 0.00 in0.0 mm 0.00 in0.0 mm
05:07 AM 51.3°F10.7°C 46.0°F7.8°C 82% 8.0 mph ENE12.9 kmh ENE 11.0 mph17.7 kmh 30.41 in1029.8 mb 0.00 in0.0 mm 0.00 in0.0 mm 0.00 in0.0 mm
05:06 AM 51.3°F10.7°C 46.0°F7.8°C 82% 8.0 mph E12.9 kmh E 11.0 mph17.7 kmh 30.41 in1029.8 mb 0.00 in0.0 mm 0.00 in0.0 mm 0.00 in0.0 mm
05:05 AM 51.3°F10.7°C 46.0°F7.8°C 82% 8.0 mph E12.9 kmh E 11.0 mph17.7 kmh 30.41 in1029.8 mb 0.00 in0.0 mm 0.00 in0.0 mm 0.00 in0.0 mm
05:04 AM 51.4°F10.8°C 46.1°F7.8°C 82% 8.0 mph E12.9 kmh E 11.0 mph17.7 kmh 30.41 in1029.8 mb 0.00 in0.0 mm 0.00 in0.0 mm 0.00 in0.0 mm
05:03 AM 51.4°F10.8°C 46.1°F7.8°C 82% 8.0 mph E12.9 kmh E 11.0 mph17.7 kmh 30.41 in1029.8 mb 0.00 in0.0 mm 0.00 in0.0 mm 0.00 in0.0 mm
05:02 AM 51.4°F10.8°C 46.1°F7.8°C 82% 8.0 mph E12.9 kmh E 11.0 mph17.7 kmh 30.41 in1029.8 mb 0.00 in0.0 mm 0.00 in0.0 mm 0.00 in0.0 mm
05:01 AM 51.4°F10.8°C 46.1°F7.8°C 82% 8.0 mph E12.9 kmh E 11.0 mph17.7 kmh 30.41 in1029.8 mb 0.00 in0.0 mm 0.00 in0.0 mm 0.00 in0.0 mm
05:00 AM 51.4°F10.8°C 46.1°F7.8°C 82% 8.0 mph ENE12.9 kmh ENE 11.0 mph17.7 kmh 30.41 in1029.8 mb 0.00 in0.0 mm 0.00 in0.0 mm 0.00 in0.0 mm
04:59 AM 51.4°F10.8°C 46.1°F7.8°C 82% 8.0 mph E12.9 kmh E 11.0 mph17.7 kmh 30.41 in1029.8 mb 0.00 in0.0 mm 0.00 in0.0 mm 0.00 in0.0 mm
04:58 AM 51.4°F10.8°C 46.1°F7.8°C 82% 7.0 mph E11.3 kmh E 11.0 mph17.7 kmh 30.41 in1029.8 mb 0.00 in0.0 mm 0.00 in0.0 mm 0.00 in0.0 mm
04:57 AM 51.4°F10.8°C 46.1°F7.8°C 82% 7.0 mph E11.3 kmh E 11.0 mph17.7 kmh 30.41 in1029.8 mb 0.00 in0.0 mm 0.00 in0.0 mm 0.00 in0.0 mm
04:56 AM 51.4°F10.8°C 46.1°F7.8°C 82% 7.0 mph E11.3 kmh E 11.0 mph17.7 kmh 30.41 in1029.8 mb 0.00 in0.0 mm 0.00 in0.0 mm 0.00 in0.0 mm
04:55 AM 51.4°F10.8°C 46.1°F7.8°C 82% 7.0 mph E11.3 kmh E 11.0 mph17.7 kmh 30.41 in1029.8 mb 0.00 in0.0 mm 0.00 in0.0 mm 0.00 in0.0 mm
04:54 AM 51.4°F10.8°C 46.1°F7.8°C 82% 7.0 mph E11.3 kmh E 11.0 mph17.7 kmh 30.41 in1029.8 mb 0.00 in0.0 mm 0.00 in0.0 mm 0.00 in0.0 mm
04:53 AM 51.4°F10.8°C 46.1°F7.8°C 82% 7.0 mph E11.3 kmh E 11.0 mph17.7 kmh 30.41 in1029.8 mb 0.00 in0.0 mm 0.00 in0.0 mm 0.00 in0.0 mm
04:52 AM 51.4°F10.8°C 46.1°F7.8°C 82% 7.0 mph E11.3 kmh E 11.0 mph17.7 kmh 30.41 in1029.8 mb 0.00 in0.0 mm 0.00 in0.0 mm 0.00 in0.0 mm
04:51 AM 51.4°F10.8°C 46.1°F7.8°C 82% 7.0 mph E11.3 kmh E 10.0 mph16.1 kmh 30.41 in1029.8 mb 0.00 in0.0 mm 0.00 in0.0 mm 0.00 in0.0 mm
04:50 AM 51.4°F10.8°C 46.1°F7.8°C 82% 7.0 mph E11.3 kmh E 10.0 mph16.1 kmh 30.41 in1029.8 mb 0.00 in0.0 mm 0.00 in0.0 mm 0.00 in0.0 mm
04:49 AM 51.4°F10.8°C 46.1°F7.8°C 82% 7.0 mph E11.3 kmh E 10.0 mph16.1 kmh 30.41 in1029.8 mb 0.00 in0.0 mm 0.00 in0.0 mm 0.00 in0.0 mm
04:48 AM 51.4°F10.8°C 46.1°F7.8°C 82% 7.0 mph E11.3 kmh E 10.0 mph16.1 kmh 30.41 in1029.8 mb 0.00 in0.0 mm 0.00 in0.0 mm 0.00 in0.0 mm
04:47 AM 51.4°F10.8°C 46.1°F7.8°C 82% 7.0 mph ENE11.3 kmh ENE 10.0 mph16.1 kmh 30.41 in1029.8 mb 0.00 in0.0 mm 0.00 in0.0 mm 0.00 in0.0 mm
04:46 AM 51.4°F10.8°C 46.1°F7.8°C 82% 7.0 mph ENE11.3 kmh ENE 11.0 mph17.7 kmh 30.41 in1029.8 mb 0.00 in0.0 mm 0.00 in0.0 mm 0.00 in0.0 mm
04:45 AM 51.6°F10.9°C 46.3°F7.9°C 82% 7.0 mph ENE11.3 kmh ENE 11.0 mph17.7 kmh 30.41 in1029.8 mb 0.00 in0.0 mm 0.00 in0.0 mm 0.00 in0.0 mm
04:44 AM 51.4°F10.8°C 46.1°F7.8°C 82% 7.0 mph ENE11.3 kmh ENE 11.0 mph17.7 kmh 30.41 in1029.8 mb 0.00 in0.0 mm 0.00 in0.0 mm 0.00 in0.0 mm
04:43 AM 51.4°F10.8°C 46.1°F7.8°C 82% 8.0 mph ENE12.9 kmh ENE 11.0 mph17.7 kmh 30.41 in1029.8 mb 0.00 in0.0 mm 0.00 in0.0 mm 0.00 in0.0 mm
04:42 AM 51.4°F10.8°C 46.1°F7.8°C 82% 8.0 mph ENE12.9 kmh ENE 11.0 mph17.7 kmh 30.41 in1029.8 mb 0.00 in0.0 mm 0.00 in0.0 mm 0.00 in0.0 mm
04:41 AM 51.4°F10.8°C 46.1°F7.8°C 82% 8.0 mph ENE12.9 kmh ENE 11.0 mph17.7 kmh 30.41 in1029.8 mb 0.00 in0.0 mm 0.00 in0.0 mm 0.00 in0.0 mm
04:40 AM 51.6°F10.9°C 46.3°F7.9°C 82% 8.0 mph ENE12.9 kmh ENE 11.0 mph17.7 kmh 30.41 in1029.8 mb 0.00 in0.0 mm 0.00 in0.0 mm 0.00 in0.0 mm
04:39 AM 51.4°F10.8°C 46.1°F7.8°C 82% 8.0 mph ENE12.9 kmh ENE 11.0 mph17.7 kmh 30.41 in1029.8 mb 0.00 in0.0 mm 0.00 in0.0 mm 0.00 in0.0 mm
04:38 AM 51.6°F10.9°C 46.3°F7.9°C 82% 7.0 mph ENE11.3 kmh ENE 11.0 mph17.7 kmh 30.41 in1029.8 mb 0.00 in0.0 mm 0.00 in0.0 mm 0.00 in0.0 mm
04:37 AM 51.6°F10.9°C 46.3°F7.9°C 82% 7.0 mph ENE11.3 kmh ENE 11.0 mph17.7 kmh 30.41 in1029.8 mb 0.00 in0.0 mm 0.00 in0.0 mm 0.00 in0.0 mm
04:36 AM 51.6°F10.9°C 46.3°F7.9°C 82% 7.0 mph ENE11.3 kmh ENE 11.0 mph17.7 kmh 30.41 in1029.8 mb 0.00 in0.0 mm 0.00 in0.0 mm 0.00 in0.0 mm
04:35 AM 51.6°F10.9°C 46.3°F7.9°C 82% 7.0 mph ENE11.3 kmh ENE 11.0 mph17.7 kmh 30.41 in1029.8 mb 0.00 in0.0 mm 0.00 in0.0 mm 0.00 in0.0 mm
04:34 AM 51.6°F10.9°C 46.3°F7.9°C 82% 7.0 mph ENE11.3 kmh ENE 11.0 mph17.7 kmh 30.41 in1029.8 mb 0.00 in0.0 mm 0.00 in0.0 mm 0.00 in0.0 mm
04:33 AM 51.6°F10.9°C 46.3°F7.9°C 82% 7.0 mph E11.3 kmh E 11.0 mph17.7 kmh 30.41 in1029.8 mb 0.00 in0.0 mm 0.00 in0.0 mm 0.00 in0.0 mm
04:32 AM 51.6°F10.9°C 46.3°F7.9°C 82% 7.0 mph E11.3 kmh E 11.0 mph17.7 kmh 30.41 in1029.8 mb 0.00 in0.0 mm 0.00 in0.0 mm 0.00 in0.0 mm
04:31 AM 51.6°F10.9°C 46.3°F7.9°C 82% 7.0 mph E11.3 kmh E 11.0 mph17.7 kmh 30.41 in1029.8 mb 0.00 in0.0 mm 0.00 in0.0 mm 0.00 in0.0 mm
04:30 AM 51.6°F10.9°C 46.3°F7.9°C 82% 7.0 mph E11.3 kmh E 11.0 mph17.7 kmh 30.41 in1029.8 mb 0.00 in0.0 mm 0.00 in0.0 mm 0.00 in0.0 mm
04:29 AM 51.6°F10.9°C 46.3°F7.9°C 82% 7.0 mph E11.3 kmh E 11.0 mph17.7 kmh 30.41 in1029.8 mb 0.00 in0.0 mm 0.00 in0.0 mm 0.00 in0.0 mm
04:28 AM 51.6°F10.9°C 46.3°F7.9°C 82% 7.0 mph E11.3 kmh E 11.0 mph17.7 kmh 30.41 in1029.8 mb 0.00 in0.0 mm 0.00 in0.0 mm 0.00 in0.0 mm
04:27 AM 51.6°F10.9°C 46.3°F7.9°C 82% 7.0 mph E11.3 kmh E 11.0 mph17.7 kmh 30.41 in1029.8 mb 0.00 in0.0 mm 0.00 in0.0 mm 0.00 in0.0 mm
04:26 AM 51.6°F10.9°C 46.3°F7.9°C 82% 7.0 mph E11.3 kmh E 11.0 mph17.7 kmh 30.41 in1029.8 mb 0.00 in0.0 mm 0.00 in0.0 mm 0.00 in0.0 mm
04:25 AM 51.6°F10.9°C 46.3°F7.9°C 82% 7.0 mph E11.3 kmh E 11.0 mph17.7 kmh 30.41 in1029.8 mb 0.00 in0.0 mm 0.00 in0.0 mm 0.00 in0.0 mm
04:24 AM 51.6°F10.9°C 46.3°F7.9°C 82% 7.0 mph E11.3 kmh E 11.0 mph17.7 kmh 30.41 in1029.8 mb 0.00 in0.0 mm 0.00 in0.0 mm 0.00 in0.0 mm
04:23 AM 51.6°F10.9°C 46.3°F7.9°C 82% 7.0 mph E11.3 kmh E 11.0 mph17.7 kmh 30.41 in1029.8 mb 0.00 in0.0 mm 0.00 in0.0 mm 0.00 in0.0 mm
04:22 AM 51.6°F10.9°C 46.3°F7.9°C 82% 7.0 mph E11.3 kmh E 11.0 mph17.7 kmh 30.41 in1029.8 mb 0.00 in0.0 mm 0.00 in0.0 mm 0.00 in0.0 mm
04:21 AM 51.6°F10.9°C 46.3°F7.9°C 82% 7.0 mph E11.3 kmh E 11.0 mph17.7 kmh 30.41 in1029.8 mb 0.00 in0.0 mm 0.00 in0.0 mm 0.00 in0.0 mm
04:20 AM 51.8°F11.0°C 46.5°F8.1°C 82% 7.0 mph ENE11.3 kmh ENE 11.0 mph17.7 kmh 30.41 in1029.8 mb 0.00 in0.0 mm 0.00 in0.0 mm 0.00 in0.0 mm
04:19 AM 51.6°F10.9°C 46.3°F7.9°C 82% 7.0 mph ENE11.3 kmh ENE 11.0 mph17.7 kmh 30.41 in1029.8 mb 0.00 in0.0 mm 0.00 in0.0 mm 0.00 in0.0 mm
04:18 AM 51.6°F10.9°C 46.3°F7.9°C 82% 7.0 mph ENE11.3 kmh ENE 10.0 mph16.1 kmh 30.41 in1029.8 mb 0.00 in0.0 mm 0.00 in0.0 mm 0.00 in0.0 mm
04:17 AM 51.6°F10.9°C 46.3°F7.9°C 82% 7.0 mph ENE11.3 kmh ENE 10.0 mph16.1 kmh 30.41 in1029.8 mb 0.00 in0.0 mm 0.00 in0.0 mm 0.00 in0.0 mm
04:16 AM 51.8°F11.0°C 46.5°F8.1°C 82% 7.0 mph ENE11.3 kmh ENE 10.0 mph16.1 kmh 30.41 in1029.8 mb 0.00 in0.0 mm 0.00 in0.0 mm 0.00 in0.0 mm
04:15 AM 51.8°F11.0°C 46.5°F8.1°C 82% 7.0 mph ENE11.3 kmh ENE 11.0 mph17.7 kmh 30.41 in1029.8 mb 0.00 in0.0 mm 0.00 in0.0 mm 0.00 in0.0 mm
04:14 AM 51.8°F11.0°C 46.2°F7.9°C 81% 7.0 mph ENE11.3 kmh ENE 11.0 mph17.7 kmh 30.41 in1029.8 mb 0.00 in0.0 mm 0.00 in0.0 mm 0.00 in0.0 mm
04:13 AM 51.8°F11.0°C 46.2°F7.9°C 81% 7.0 mph ENE11.3 kmh ENE 11.0 mph17.7 kmh 30.41 in1029.8 mb 0.00 in0.0 mm 0.00 in0.0 mm 0.00 in0.0 mm
04:12 AM 51.8°F11.0°C 46.2°F7.9°C 81% 7.0 mph ENE11.3 kmh ENE 11.0 mph17.7 kmh 30.41 in1029.8 mb 0.00 in0.0 mm 0.00 in0.0 mm 0.00 in0.0 mm
04:11 AM 51.8°F11.0°C 46.2°F7.9°C 81% 7.0 mph ENE11.3 kmh ENE 11.0 mph17.7 kmh 30.41 in1029.8 mb 0.00 in0.0 mm 0.00 in0.0 mm 0.00 in0.0 mm
04:10 AM 51.8°F11.0°C 46.2°F7.9°C 81% 7.0 mph ENE11.3 kmh ENE 11.0 mph17.7 kmh 30.41 in1029.8 mb 0.00 in0.0 mm 0.00 in0.0 mm 0.00 in0.0 mm
04:09 AM 51.8°F11.0°C 46.2°F7.9°C 81% 7.0 mph ENE11.3 kmh ENE 11.0 mph17.7 kmh 30.41 in1029.8 mb 0.00 in0.0 mm 0.00 in0.0 mm 0.00 in0.0 mm
04:08 AM 52.0°F11.1°C 46.3°F7.9°C 81% 7.0 mph ENE11.3 kmh ENE 11.0 mph17.7 kmh 30.41 in1029.8 mb 0.00 in0.0 mm 0.00 in0.0 mm 0.00 in0.0 mm
04:07 AM 51.8°F11.0°C 46.2°F7.9°C 81% 7.0 mph ENE11.3 kmh ENE 11.0 mph17.7 kmh 30.40 in1029.5 mb 0.00 in0.0 mm 0.00 in0.0 mm 0.00 in0.0 mm
04:06 AM 52.0°F11.1°C 46.3°F7.9°C 81% 7.0 mph ENE11.3 kmh ENE 11.0 mph17.7 kmh 30.41 in1029.8 mb 0.00 in0.0 mm 0.00 in0.0 mm 0.00 in0.0 mm
04:05 AM 52.0°F11.1°C 46.3°F7.9°C 81% 7.0 mph ENE11.3 kmh ENE 10.0 mph16.1 kmh 30.41 in1029.8 mb 0.00 in0.0 mm 0.00 in0.0 mm 0.00 in0.0 mm
04:04 AM 52.0°F11.1°C 46.3°F7.9°C 81% 7.0 mph ENE11.3 kmh ENE 10.0 mph16.1 kmh 30.41 in1029.8 mb 0.00 in0.0 mm 0.00 in0.0 mm 0.00 in0.0 mm
04:03 AM 52.0°F11.1°C 46.3°F7.9°C 81% 7.0 mph ENE11.3 kmh ENE 10.0 mph16.1 kmh 30.41 in1029.8 mb 0.00 in0.0 mm 0.00 in0.0 mm 0.00 in0.0 mm
04:02 AM 52.0°F11.1°C 46.3°F7.9°C 81% 7.0 mph ENE11.3 kmh ENE 10.0 mph16.1 kmh 30.41 in1029.8 mb 0.00 in0.0 mm 0.00 in0.0 mm 0.00 in0.0 mm
04:01 AM 52.0°F11.1°C 46.3°F7.9°C 81% 7.0 mph ENE11.3 kmh ENE 10.0 mph16.1 kmh 30.40 in1029.5 mb 0.00 in0.0 mm 0.00 in0.0 mm 0.00 in0.0 mm
04:00 AM 52.0°F11.1°C 46.3°F7.9°C 81% 7.0 mph ENE11.3 kmh ENE 10.0 mph16.1 kmh 30.40 in1029.5 mb 0.00 in0.0 mm 0.00 in0.0 mm 0.00 in0.0 mm
03:59 AM 52.0°F11.1°C 46.3°F7.9°C 81% 7.0 mph ENE11.3 kmh ENE 10.0 mph16.1 kmh 30.41 in1029.8 mb 0.00 in0.0 mm 0.00 in0.0 mm 0.00 in0.0 mm
03:58 AM 52.0°F11.1°C 46.3°F7.9°C 81% 7.0 mph ENE11.3 kmh ENE 10.0 mph16.1 kmh 30.41 in1029.8 mb 0.00 in0.0 mm 0.00 in0.0 mm 0.00 in0.0 mm
03:57 AM 52.2°F11.2°C 46.5°F8.1°C 81% 7.0 mph E11.3 kmh E 10.0 mph16.1 kmh 30.41 in1029.8 mb 0.00 in0.0 mm 0.00 in0.0 mm 0.00 in0.0 mm
03:56 AM 52.0°F11.1°C 46.3°F7.9°C 81% 7.0 mph E11.3 kmh E 10.0 mph16.1 kmh 30.40 in1029.5 mb 0.00 in0.0 mm 0.00 in0.0 mm 0.00 in0.0 mm
03:55 AM 52.2°F11.2°C 46.2°F7.9°C 80% 7.0 mph E11.3 kmh E 10.0 mph16.1 kmh 30.41 in1029.8 mb 0.00 in0.0 mm 0.00 in0.0 mm 0.00 in0.0 mm
03:54 AM 52.2°F11.2°C 46.2°F7.9°C 80% 8.0 mph E12.9 kmh E 10.0 mph16.1 kmh 30.41 in1029.8 mb 0.00 in0.0 mm 0.00 in0.0 mm 0.00 in0.0 mm
03:53 AM 52.2°F11.2°C 46.2°F7.9°C 80% 8.0 mph E12.9 kmh E 10.0 mph16.1 kmh 30.41 in1029.8 mb 0.00 in0.0 mm 0.00 in0.0 mm 0.00 in0.0 mm
03:52 AM 52.2°F11.2°C 46.2°F7.9°C 80% 8.0 mph E12.9 kmh E 11.0 mph17.7 kmh 30.40 in1029.5 mb 0.00 in0.0 mm 0.00 in0.0 mm 0.00 in0.0 mm
03:51 AM 52.2°F11.2°C 46.2°F7.9°C 80% 8.0 mph E12.9 kmh E 11.0 mph17.7 kmh 30.40 in1029.5 mb 0.00 in0.0 mm 0.00 in0.0 mm 0.00 in0.0 mm
03:50 AM 52.3°F11.3°C 46.4°F8.0°C 80% 8.0 mph E12.9 kmh E 11.0 mph17.7 kmh 30.40 in1029.5 mb 0.00 in0.0 mm 0.00 in0.0 mm 0.00 in0.0 mm
03:49 AM 52.3°F11.3°C 46.4°F8.0°C 80% 8.0 mph E12.9 kmh E 11.0 mph17.7 kmh 30.40 in1029.5 mb 0.00 in0.0 mm 0.00 in0.0 mm 0.00 in0.0 mm
03:48 AM 52.3°F11.3°C 46.4°F8.0°C 80% 8.0 mph E12.9 kmh E 11.0 mph17.7 kmh 30.40 in1029.5 mb 0.00 in0.0 mm 0.00 in0.0 mm 0.00 in0.0 mm
03:47 AM 52.3°F11.3°C 46.4°F8.0°C 80% 8.0 mph E12.9 kmh E 11.0 mph17.7 kmh 30.40 in1029.5 mb 0.00 in0.0 mm 0.00 in0.0 mm 0.00 in0.0 mm
03:46 AM 52.3°F11.3°C 46.4°F8.0°C 80% 8.0 mph ENE12.9 kmh ENE 11.0 mph17.7 kmh 30.40 in1029.5 mb 0.00 in0.0 mm 0.00 in0.0 mm 0.00 in0.0 mm
03:45 AM 52.3°F11.3°C 46.4°F8.0°C 80% 8.0 mph ENE12.9 kmh ENE 11.0 mph17.7 kmh 30.40 in1029.5 mb 0.00 in0.0 mm 0.00 in0.0 mm 0.00 in0.0 mm
03:44 AM 52.3°F11.3°C 46.4°F8.0°C 80% 8.0 mph ENE12.9 kmh ENE 11.0 mph17.7 kmh 30.40 in1029.5 mb 0.00 in0.0 mm 0.00 in0.0 mm 0.00 in0.0 mm
03:43 AM 52.3°F11.3°C 46.4°F8.0°C 80% 8.0 mph ENE12.9 kmh ENE 11.0 mph17.7 kmh 30.40 in1029.5 mb 0.00 in0.0 mm 0.00 in0.0 mm 0.00 in0.0 mm
03:42 AM 52.5°F11.4°C 46.5°F8.1°C 80% 8.0 mph ENE12.9 kmh ENE 11.0 mph17.7 kmh 30.40 in1029.5 mb 0.00 in0.0 mm 0.00 in0.0 mm 0.00 in0.0 mm
03:41 AM 52.5°F11.4°C 46.5°F8.1°C 80% 8.0 mph ENE12.9 kmh ENE 12.0 mph19.3 kmh 30.40 in1029.5 mb 0.00 in0.0 mm 0.00 in0.0 mm 0.00 in0.0 mm
03:40 AM 52.5°F11.4°C 46.5°F8.1°C 80% 8.0 mph ENE12.9 kmh ENE 12.0 mph19.3 kmh 30.40 in1029.5 mb 0.00 in0.0 mm 0.00 in0.0 mm 0.00 in0.0 mm
03:39 AM 52.5°F11.4°C 46.5°F8.1°C 80% 8.0 mph ENE12.9 kmh ENE 12.0 mph19.3 kmh 30.40 in1029.5 mb 0.00 in0.0 mm 0.00 in0.0 mm 0.00 in0.0 mm
03:38 AM 52.5°F11.4°C 46.5°F8.1°C 80% 8.0 mph ENE12.9 kmh ENE 12.0 mph19.3 kmh 30.40 in1029.5 mb 0.00 in0.0 mm 0.00 in0.0 mm 0.00 in0.0 mm
03:37 AM 52.5°F11.4°C 46.5°F8.1°C 80% 8.0 mph ENE12.9 kmh ENE 12.0 mph19.3 kmh 30.40 in1029.5 mb 0.00 in0.0 mm 0.00 in0.0 mm 0.00 in0.0 mm
03:36 AM 52.5°F11.4°C 46.5°F8.1°C 80% 8.0 mph ENE12.9 kmh ENE 12.0 mph19.3 kmh 30.40 in1029.5 mb 0.00 in0.0 mm 0.00 in0.0 mm 0.00 in0.0 mm
03:35 AM 52.5°F11.4°C 46.5°F8.1°C 80% 8.0 mph ENE12.9 kmh ENE 12.0 mph19.3 kmh 30.41 in1029.8 mb 0.00 in0.0 mm 0.00 in0.0 mm 0.00 in0.0 mm
03:34 AM 52.5°F11.4°C 46.2°F7.9°C 79% 8.0 mph ENE12.9 kmh ENE 12.0 mph19.3 kmh 30.40 in1029.5 mb 0.00 in0.0 mm 0.00 in0.0 mm 0.00 in0.0 mm
03:33 AM 52.5°F11.4°C 46.2°F7.9°C 79% 8.0 mph ENE12.9 kmh ENE 12.0 mph19.3 kmh 30.40 in1029.5 mb 0.00 in0.0 mm 0.00 in0.0 mm 0.00 in0.0 mm
03:32 AM 52.5°F11.4°C 46.2°F7.9°C 79% 8.0 mph ENE12.9 kmh ENE 12.0 mph19.3 kmh 30.40 in1029.5 mb 0.00 in0.0 mm 0.00 in0.0 mm 0.00 in0.0 mm
03:31 AM 52.7°F11.5°C 46.4°F8.0°C 79% 8.0 mph ENE12.9 kmh ENE 12.0 mph19.3 kmh 30.41 in1029.8 mb 0.00 in0.0 mm 0.00 in0.0 mm 0.00 in0.0 mm
03:30 AM 52.7°F11.5°C 46.4°F8.0°C 79% 8.0 mph ENE12.9 kmh ENE 12.0 mph19.3 kmh 30.41 in1029.8 mb 0.00 in0.0 mm 0.00 in0.0 mm 0.00 in0.0 mm
03:29 AM 52.7°F11.5°C 46.4°F8.0°C 79% 9.0 mph ENE14.5 kmh ENE 12.0 mph19.3 kmh 30.41 in1029.8 mb 0.00 in0.0 mm 0.00 in0.0 mm 0.00 in0.0 mm
03:28 AM 52.9°F11.6°C 46.5°F8.1°C 79% 9.0 mph ENE14.5 kmh ENE 12.0 mph19.3 kmh 30.40 in1029.5 mb 0.00 in0.0 mm 0.00 in0.0 mm 0.00 in0.0 mm
03:27 AM 52.9°F11.6°C 46.5°F8.1°C 79% 9.0 mph ENE14.5 kmh ENE 12.0 mph19.3 kmh 30.41 in1029.8 mb 0.00 in0.0 mm 0.00 in0.0 mm 0.00 in0.0 mm
03:26 AM 52.9°F11.6°C 46.5°F8.1°C 79% 9.0 mph ENE14.5 kmh ENE 12.0 mph19.3 kmh 30.41 in1029.8 mb 0.00 in0.0 mm 0.00 in0.0 mm 0.00 in0.0 mm
03:25 AM 52.9°F11.6°C 46.5°F8.1°C 79% 9.0 mph ENE14.5 kmh ENE 13.0 mph20.9 kmh 30.41 in1029.8 mb 0.00 in0.0 mm 0.00 in0.0 mm 0.00 in0.0 mm
03:24 AM 52.9°F11.6°C 46.5°F8.1°C 79% 9.0 mph ENE14.5 kmh ENE 13.0 mph20.9 kmh 30.41 in1029.8 mb 0.00 in0.0 mm 0.00 in0.0 mm 0.00 in0.0 mm
03:23 AM 52.9°F11.6°C 46.5°F8.1°C 79% 9.0 mph ENE14.5 kmh ENE 13.0 mph20.9 kmh 30.41 in1029.8 mb 0.00 in0.0 mm 0.00 in0.0 mm 0.00 in0.0 mm
03:22 AM 52.9°F11.6°C 46.5°F8.1°C 79% 8.0 mph ENE12.9 kmh ENE 13.0 mph20.9 kmh 30.41 in1029.8 mb 0.00 in0.0 mm 0.00 in0.0 mm 0.00 in0.0 mm
03:21 AM 52.9°F11.6°C 46.5°F8.1°C 79% 8.0 mph ENE12.9 kmh ENE 13.0 mph20.9 kmh 30.41 in1029.8 mb 0.00 in0.0 mm 0.00 in0.0 mm 0.00 in0.0 mm
03:20 AM 52.9°F11.6°C 46.5°F8.1°C 79% 8.0 mph ENE12.9 kmh ENE 13.0 mph20.9 kmh 30.41 in1029.8 mb 0.00 in0.0 mm 0.00 in0.0 mm 0.00 in0.0 mm
03:19 AM 52.9°F11.6°C 46.5°F8.1°C 79% 8.0 mph ENE12.9 kmh ENE 13.0 mph20.9 kmh 30.41 in1029.8 mb 0.00 in0.0 mm 0.00 in0.0 mm 0.00 in0.0 mm
03:18 AM 52.9°F11.6°C 46.5°F8.1°C 79% 8.0 mph ENE12.9 kmh ENE 13.0 mph20.9 kmh 30.41 in1029.8 mb 0.00 in0.0 mm 0.00 in0.0 mm 0.00 in0.0 mm
03:17 AM 52.9°F11.6°C 46.5°F8.1°C 79% 8.0 mph ENE12.9 kmh ENE 13.0 mph20.9 kmh 30.41 in1029.8 mb 0.00 in0.0 mm 0.00 in0.0 mm 0.00 in0.0 mm
03:16 AM 53.1°F11.7°C 46.7°F8.2°C 79% 8.0 mph ENE12.9 kmh ENE 13.0 mph20.9 kmh 30.41 in1029.8 mb 0.00 in0.0 mm 0.00 in0.0 mm 0.00 in0.0 mm
03:15 AM 53.1°F11.7°C 46.7°F8.2°C 79% 8.0 mph ENE12.9 kmh ENE 12.0 mph19.3 kmh 30.41 in1029.8 mb 0.00 in0.0 mm 0.00 in0.0 mm 0.00 in0.0 mm
03:14 AM 53.1°F11.7°C 46.7°F8.2°C 79% 7.0 mph ENE11.3 kmh ENE 12.0 mph19.3 kmh 30.41 in1029.8 mb 0.00 in0.0 mm 0.00 in0.0 mm 0.00 in0.0 mm
03:13 AM 53.1°F11.7°C 46.7°F8.2°C 79% 7.0 mph ENE11.3 kmh ENE 12.0 mph19.3 kmh 30.41 in1029.8 mb 0.00 in0.0 mm 0.00 in0.0 mm 0.00 in0.0 mm
03:12 AM 53.1°F11.7°C 46.7°F8.2°C 79% 7.0 mph ENE11.3 kmh ENE 12.0 mph19.3 kmh 30.41 in1029.8 mb 0.00 in0.0 mm 0.00 in0.0 mm 0.00 in0.0 mm
03:11 AM 53.1°F11.7°C 46.7°F8.2°C 79% 7.0 mph ENE11.3 kmh ENE 11.0 mph17.7 kmh 30.41 in1029.8 mb 0.00 in0.0 mm 0.00 in0.0 mm 0.00 in0.0 mm
03:10 AM 53.1°F11.7°C 46.7°F8.2°C 79% 7.0 mph ENE11.3 kmh ENE 11.0 mph17.7 kmh 30.41 in1029.8 mb 0.00 in0.0 mm 0.00 in0.0 mm 0.00 in0.0 mm
03:09 AM 53.1°F11.7°C 46.4°F8.0°C 78% 7.0 mph ENE11.3 kmh ENE 11.0 mph17.7 kmh 30.41 in1029.8 mb 0.00 in0.0 mm 0.00 in0.0 mm 0.00 in0.0 mm
03:08 AM 53.1°F11.7°C 46.4°F8.0°C 78% 7.0 mph ENE11.3 kmh ENE 11.0 mph17.7 kmh 30.40 in1029.5 mb 0.00 in0.0 mm 0.00 in0.0 mm 0.00 in0.0 mm
03:07 AM 53.1°F11.7°C 46.4°F8.0°C 78% 7.0 mph ENE11.3 kmh ENE 11.0 mph17.7 kmh 30.41 in1029.8 mb 0.00 in0.0 mm 0.00 in0.0 mm 0.00 in0.0 mm
03:06 AM 53.1°F11.7°C 46.4°F8.0°C 78% 7.0 mph ENE11.3 kmh ENE 11.0 mph17.7 kmh 30.41 in1029.8 mb 0.00 in0.0 mm 0.00 in0.0 mm 0.00 in0.0 mm
03:05 AM 53.2°F11.8°C 46.6°F8.1°C 78% 7.0 mph ENE11.3 kmh ENE 11.0 mph17.7 kmh 30.40 in1029.5 mb 0.00 in0.0 mm 0.00 in0.0 mm 0.00 in0.0 mm
03:04 AM 53.2°F11.8°C 46.6°F8.1°C 78% 7.0 mph ENE11.3 kmh ENE 12.0 mph19.3 kmh 30.41 in1029.8 mb 0.00 in0.0 mm 0.00 in0.0 mm 0.00 in0.0 mm
03:03 AM 53.2°F11.8°C 46.6°F8.1°C 78% 8.0 mph ENE12.9 kmh ENE 12.0 mph19.3 kmh 30.41 in1029.8 mb 0.00 in0.0 mm 0.00 in0.0 mm 0.00 in0.0 mm
03:02 AM 53.2°F11.8°C 46.6°F8.1°C 78% 8.0 mph ENE12.9 kmh ENE 12.0 mph19.3 kmh 30.41 in1029.8 mb 0.00 in0.0 mm 0.00 in0.0 mm 0.00 in0.0 mm
03:01 AM 53.2°F11.8°C 46.6°F8.1°C 78% 8.0 mph ENE12.9 kmh ENE 12.0 mph19.3 kmh 30.41 in1029.8 mb 0.00 in0.0 mm 0.00 in0.0 mm 0.00 in0.0 mm
03:00 AM 53.2°F11.8°C 46.6°F8.1°C 78% 8.0 mph ENE12.9 kmh ENE 12.0 mph19.3 kmh 30.40 in1029.5 mb 0.00 in0.0 mm 0.00 in0.0 mm 0.00 in0.0 mm
02:59 AM 53.2°F11.8°C 46.6°F8.1°C 78% 8.0 mph ENE12.9 kmh ENE 12.0 mph19.3 kmh 30.41 in1029.8 mb 0.00 in0.0 mm 0.00 in0.0 mm 0.00 in0.0 mm
02:58 AM 53.4°F11.9°C 46.7°F8.2°C 78% 8.0 mph ENE12.9 kmh ENE 12.0 mph19.3 kmh 30.41 in1029.8 mb 0.00 in0.0 mm 0.00 in0.0 mm 0.00 in0.0 mm
02:57 AM 53.4°F11.9°C 46.7°F8.2°C 78% 8.0 mph ENE12.9 kmh ENE 12.0 mph19.3 kmh 30.40 in1029.5 mb 0.00 in0.0 mm 0.00 in0.0 mm 0.00 in0.0 mm
02:56 AM 53.4°F11.9°C 46.7°F8.2°C 78% 8.0 mph ENE12.9 kmh ENE 12.0 mph19.3 kmh 30.40 in1029.5 mb 0.00 in0.0 mm 0.00 in0.0 mm 0.00 in0.0 mm
02:55 AM 53.4°F11.9°C 46.7°F8.2°C 78% 8.0 mph ENE12.9 kmh ENE 12.0 mph19.3 kmh 30.40 in1029.5 mb 0.00 in0.0 mm 0.00 in0.0 mm 0.00 in0.0 mm
02:54 AM 53.4°F11.9°C 46.7°F8.2°C 78% 8.0 mph ENE12.9 kmh ENE 11.0 mph17.7 kmh 30.40 in1029.5 mb 0.00 in0.0 mm 0.00 in0.0 mm 0.00 in0.0 mm
02:53 AM 53.4°F11.9°C 46.7°F8.2°C 78% 8.0 mph ENE12.9 kmh ENE 11.0 mph17.7 kmh 30.40 in1029.5 mb 0.00 in0.0 mm 0.00 in0.0 mm 0.00 in0.0 mm
02:52 AM 53.4°F11.9°C 46.7°F8.2°C 78% 8.0 mph ENE12.9 kmh ENE 11.0 mph17.7 kmh 30.40 in1029.5 mb 0.00 in0.0 mm 0.00 in0.0 mm 0.00 in0.0 mm
02:51 AM 53.4°F11.9°C 46.7°F8.2°C 78% 8.0 mph ENE12.9 kmh ENE 11.0 mph17.7 kmh 30.40 in1029.5 mb 0.00 in0.0 mm 0.00 in0.0 mm 0.00 in0.0 mm
02:50 AM 53.4°F11.9°C 46.7°F8.2°C 78% 8.0 mph ENE12.9 kmh ENE 11.0 mph17.7 kmh 30.40 in1029.5 mb 0.00 in0.0 mm 0.00 in0.0 mm 0.00 in0.0 mm
02:49 AM 53.6°F12.0°C 46.9°F8.3°C 78% 8.0 mph ENE12.9 kmh ENE 11.0 mph17.7 kmh 30.40 in1029.5 mb 0.00 in0.0 mm 0.00 in0.0 mm 0.00 in0.0 mm
02:48 AM 53.6°F12.0°C 46.6°F8.1°C 77% 8.0 mph ENE12.9 kmh ENE 11.0 mph17.7 kmh 30.40 in1029.5 mb 0.00 in0.0 mm 0.00 in0.0 mm 0.00 in0.0 mm
02:47 AM 53.6°F12.0°C 46.6°F8.1°C 77% 8.0 mph ENE12.9 kmh ENE 11.0 mph17.7 kmh 30.40 in1029.5 mb 0.00 in0.0 mm 0.00 in0.0 mm 0.00 in0.0 mm
02:46 AM 53.6°F12.0°C 46.6°F8.1°C 77% 8.0 mph ENE12.9 kmh ENE 11.0 mph17.7 kmh 30.40 in1029.5 mb 0.00 in0.0 mm 0.00 in0.0 mm 0.00 in0.0 mm
02:45 AM 53.8°F12.1°C 46.7°F8.2°C 77% 8.0 mph ENE12.9 kmh ENE 11.0 mph17.7 kmh 30.40 in1029.5 mb 0.00 in0.0 mm 0.00 in0.0 mm 0.00 in0.0 mm
02:44 AM 53.8°F12.1°C 46.7°F8.2°C 77% 8.0 mph ENE12.9 kmh ENE 11.0 mph17.7 kmh 30.40 in1029.5 mb 0.00 in0.0 mm 0.00 in0.0 mm 0.00 in0.0 mm
02:43 AM 53.8°F12.1°C 46.7°F8.2°C 77% 8.0 mph ENE12.9 kmh ENE 11.0 mph17.7 kmh 30.40 in1029.5 mb 0.00 in0.0 mm 0.00 in0.0 mm 0.00 in0.0 mm
02:42 AM 53.8°F12.1°C 46.7°F8.2°C 77% 8.0 mph ENE12.9 kmh ENE 12.0 mph19.3 kmh 30.40 in1029.5 mb 0.00 in0.0 mm 0.00 in0.0 mm 0.00 in0.0 mm
02:41 AM 53.8°F12.1°C 46.7°F8.2°C 77% 8.0 mph ENE12.9 kmh ENE 12.0 mph19.3 kmh 30.40 in1029.5 mb 0.00 in0.0 mm 0.00 in0.0 mm 0.00 in0.0 mm
02:40 AM 53.8°F12.1°C 46.7°F8.2°C 77% 8.0 mph ENE12.9 kmh ENE 12.0 mph19.3 kmh 30.40 in1029.5 mb 0.00 in0.0 mm 0.00 in0.0 mm 0.00 in0.0 mm
02:39 AM 53.8°F12.1°C 46.7°F8.2°C 77% 8.0 mph ENE12.9 kmh ENE 12.0 mph19.3 kmh 30.40 in1029.5 mb 0.00 in0.0 mm 0.00 in0.0 mm 0.00 in0.0 mm
02:38 AM 53.8°F12.1°C 46.7°F8.2°C 77% 8.0 mph ENE12.9 kmh ENE 12.0 mph19.3 kmh 30.40 in1029.5 mb 0.00 in0.0 mm 0.00 in0.0 mm 0.00 in0.0 mm
02:37 AM 53.8°F12.1°C 46.7°F8.2°C 77% 8.0 mph ENE12.9 kmh ENE 12.0 mph19.3 kmh 30.40 in1029.5 mb 0.00 in0.0 mm 0.00 in0.0 mm 0.00 in0.0 mm
02:36 AM 53.8°F12.1°C 46.7°F8.2°C 77% 8.0 mph ENE12.9 kmh ENE 12.0 mph19.3 kmh 30.40 in1029.5 mb 0.00 in0.0 mm 0.00 in0.0 mm 0.00 in0.0 mm
02:35 AM 53.8°F12.1°C 46.7°F8.2°C 77% 8.0 mph ENE12.9 kmh ENE 12.0 mph19.3 kmh 30.40 in1029.5 mb 0.00 in0.0 mm 0.00 in0.0 mm 0.00 in0.0 mm
02:34 AM 53.8°F12.1°C 46.7°F8.2°C 77% 8.0 mph ENE12.9 kmh ENE 12.0 mph19.3 kmh 30.40 in1029.5 mb 0.00 in0.0 mm 0.00 in0.0 mm 0.00 in0.0 mm
02:33 AM 53.8°F12.1°C 46.7°F8.2°C 77% 8.0 mph ENE12.9 kmh ENE 12.0 mph19.3 kmh 30.40 in1029.5 mb 0.00 in0.0 mm 0.00 in0.0 mm 0.00 in0.0 mm
02:32 AM 53.8°F12.1°C 46.7°F8.2°C 77% 8.0 mph ENE12.9 kmh ENE 11.0 mph17.7 kmh 30.40 in1029.5 mb 0.00 in0.0 mm 0.00 in0.0 mm 0.00 in0.0 mm
02:31 AM 53.8°F12.1°C 46.7°F8.2°C 77% 8.0 mph ENE12.9 kmh ENE 11.0 mph17.7 kmh 30.40 in1029.5 mb 0.00 in0.0 mm 0.00 in0.0 mm 0.00 in0.0 mm
02:30 AM 53.8°F12.1°C 46.7°F8.2°C 77% 8.0 mph ENE12.9 kmh ENE 11.0 mph17.7 kmh 30.40 in1029.5 mb 0.00 in0.0 mm 0.00 in0.0 mm 0.00 in0.0 mm
02:29 AM 53.8°F12.1°C 46.7°F8.2°C 77% 8.0 mph ENE12.9 kmh ENE 11.0 mph17.7 kmh 30.40 in1029.5 mb 0.00 in0.0 mm 0.00 in0.0 mm 0.00 in0.0 mm
02:28 AM 53.8°F12.1°C 46.7°F8.2°C 77% 8.0 mph ENE12.9 kmh ENE 11.0 mph17.7 kmh 30.40 in1029.5 mb 0.00 in0.0 mm 0.00 in0.0 mm 0.00 in0.0 mm
02:27 AM 54.0°F12.2°C 46.9°F8.3°C 77% 8.0 mph ENE12.9 kmh ENE 11.0 mph17.7 kmh 30.40 in1029.5 mb 0.00 in0.0 mm 0.00 in0.0 mm 0.00 in0.0 mm
02:26 AM 54.0°F12.2°C 46.9°F8.3°C 77% 8.0 mph ENE12.9 kmh ENE 11.0 mph17.7 kmh 30.40 in1029.5 mb 0.00 in0.0 mm 0.00 in0.0 mm 0.00 in0.0 mm
02:25 AM 54.0°F12.2°C 46.9°F8.3°C 77% 8.0 mph ENE12.9 kmh ENE 11.0 mph17.7 kmh 30.40 in1029.5 mb 0.00 in0.0 mm 0.00 in0.0 mm 0.00 in0.0 mm
02:24 AM 54.0°F12.2°C 46.9°F8.3°C 77% 8.0 mph ENE12.9 kmh ENE 11.0 mph17.7 kmh 30.40 in1029.5 mb 0.00 in0.0 mm 0.00 in0.0 mm 0.00 in0.0 mm
02:23 AM 54.0°F12.2°C 46.9°F8.3°C 77% 8.0 mph ENE12.9 kmh ENE 11.0 mph17.7 kmh 30.40 in1029.5 mb 0.00 in0.0 mm 0.00 in0.0 mm 0.00 in0.0 mm
02:22 AM 54.0°F12.2°C 46.9°F8.3°C 77% 8.0 mph ENE12.9 kmh ENE 11.0 mph17.7 kmh 30.40 in1029.5 mb 0.00 in0.0 mm 0.00 in0.0 mm 0.00 in0.0 mm
02:21 AM 54.0°F12.2°C 46.9°F8.3°C 77% 8.0 mph ENE12.9 kmh ENE 11.0 mph17.7 kmh 30.40 in1029.5 mb 0.00 in0.0 mm 0.00 in0.0 mm 0.00 in0.0 mm
02:20 AM 54.0°F12.2°C 46.9°F8.3°C 77% 8.0 mph ENE12.9 kmh ENE 11.0 mph17.7 kmh 30.40 in1029.5 mb 0.00 in0.0 mm 0.00 in0.0 mm 0.00 in0.0 mm
02:19 AM 54.1°F12.3°C 47.1°F8.4°C 77% 8.0 mph ENE12.9 kmh ENE 11.0 mph17.7 kmh 30.40 in1029.5 mb 0.00 in0.0 mm 0.00 in0.0 mm 0.00 in0.0 mm
02:18 AM 54.1°F12.3°C 47.1°F8.4°C 77% 8.0 mph ENE12.9 kmh ENE 11.0 mph17.7 kmh 30.40 in1029.5 mb 0.00 in0.0 mm 0.00 in0.0 mm 0.00 in0.0 mm
02:17 AM 54.1°F12.3°C 47.1°F8.4°C 77% 8.0 mph ENE12.9 kmh ENE 11.0 mph17.7 kmh 30.40 in1029.5 mb 0.00 in0.0 mm 0.00 in0.0 mm 0.00 in0.0 mm
02:16 AM 54.1°F12.3°C 47.1°F8.4°C 77% 8.0 mph ENE12.9 kmh ENE 11.0 mph17.7 kmh 30.40 in1029.5 mb 0.00 in0.0 mm 0.00 in0.0 mm 0.00 in0.0 mm
02:15 AM 54.1°F12.3°C 46.7°F8.2°C 76% 8.0 mph ENE12.9 kmh ENE 11.0 mph17.7 kmh 30.40 in1029.5 mb 0.00 in0.0 mm 0.00 in0.0 mm 0.00 in0.0 mm
02:14 AM 54.1°F12.3°C 46.7°F8.2°C 76% 8.0 mph ENE12.9 kmh ENE 11.0 mph17.7 kmh 30.40 in1029.5 mb 0.00 in0.0 mm 0.00 in0.0 mm 0.00 in0.0 mm
02:13 AM 54.1°F12.3°C 46.7°F8.2°C 76% 8.0 mph ENE12.9 kmh ENE 11.0 mph17.7 kmh 30.40 in1029.5 mb 0.00 in0.0 mm 0.00 in0.0 mm 0.00 in0.0 mm
02:12 AM 54.1°F12.3°C 46.7°F8.2°C 76% 8.0 mph ENE12.9 kmh ENE 11.0 mph17.7 kmh 30.40 in1029.5 mb 0.00 in0.0 mm 0.00 in0.0 mm 0.00 in0.0 mm
02:11 AM 54.1°F12.3°C 46.7°F8.2°C 76% 8.0 mph ENE12.9 kmh ENE 11.0 mph17.7 kmh 30.40 in1029.5 mb 0.00 in0.0 mm 0.00 in0.0 mm 0.00 in0.0 mm
02:10 AM 54.3°F12.4°C 46.9°F8.3°C 76% 8.0 mph ENE12.9 kmh ENE 11.0 mph17.7 kmh 30.40 in1029.5 mb 0.00 in0.0 mm 0.00 in0.0 mm 0.00 in0.0 mm
02:09 AM 54.3°F12.4°C 46.9°F8.3°C 76% 8.0 mph ENE12.9 kmh ENE 11.0 mph17.7 kmh 30.40 in1029.5 mb 0.00 in0.0 mm 0.00 in0.0 mm 0.00 in0.0 mm
02:08 AM 54.3°F12.4°C 46.9°F8.3°C 76% 8.0 mph ENE12.9 kmh ENE 11.0 mph17.7 kmh 30.40 in1029.5 mb 0.00 in0.0 mm 0.00 in0.0 mm 0.00 in0.0 mm
02:07 AM 54.3°F12.4°C 46.9°F8.3°C 76% 8.0 mph ENE12.9 kmh ENE 11.0 mph17.7 kmh 30.40 in1029.5 mb 0.00 in0.0 mm 0.00 in0.0 mm 0.00 in0.0 mm
02:06 AM 54.3°F12.4°C 46.9°F8.3°C 76% 8.0 mph ENE12.9 kmh ENE 11.0 mph17.7 kmh 30.40 in1029.5 mb 0.00 in0.0 mm 0.00 in0.0 mm 0.00 in0.0 mm
02:05 AM 54.3°F12.4°C 46.9°F8.3°C 76% 8.0 mph ENE12.9 kmh ENE 12.0 mph19.3 kmh 30.40 in1029.5 mb 0.00 in0.0 mm 0.00 in0.0 mm 0.00 in0.0 mm
02:04 AM 54.3°F12.4°C 46.9°F8.3°C 76% 8.0 mph ENE12.9 kmh ENE 12.0 mph19.3 kmh 30.40 in1029.5 mb 0.00 in0.0 mm 0.00 in0.0 mm 0.00 in0.0 mm
02:03 AM 54.3°F12.4°C 46.9°F8.3°C 76% 8.0 mph ENE12.9 kmh ENE 12.0 mph19.3 kmh 30.40 in1029.5 mb 0.00 in0.0 mm 0.00 in0.0 mm 0.00 in0.0 mm
02:02 AM 54.3°F12.4°C 46.9°F8.3°C 76% 8.0 mph ENE12.9 kmh ENE 12.0 mph19.3 kmh 30.40 in1029.5 mb 0.00 in0.0 mm 0.00 in0.0 mm 0.00 in0.0 mm
02:01 AM 54.3°F12.4°C 46.9°F8.3°C 76% 8.0 mph ENE12.9 kmh ENE 12.0 mph19.3 kmh 30.41 in1029.8 mb 0.00 in0.0 mm 0.00 in0.0 mm 0.00 in0.0 mm
02:00 AM 54.3°F12.4°C 46.9°F8.3°C 76% 8.0 mph ENE12.9 kmh ENE 12.0 mph19.3 kmh 30.40 in1029.5 mb 0.00 in0.0 mm 0.00 in0.0 mm 0.00 in0.0 mm
01:59 AM 54.3°F12.4°C 46.9°F8.3°C 76% 8.0 mph ENE12.9 kmh ENE 12.0 mph19.3 kmh 30.40 in1029.5 mb 0.00 in0.0 mm 0.00 in0.0 mm 0.00 in0.0 mm
01:58 AM 54.3°F12.4°C 46.9°F8.3°C 76% 8.0 mph ENE12.9 kmh ENE 12.0 mph19.3 kmh 30.41 in1029.8 mb 0.00 in0.0 mm 0.00 in0.0 mm 0.00 in0.0 mm
01:57 AM 54.3°F12.4°C 46.9°F8.3°C 76% 8.0 mph ENE12.9 kmh ENE 12.0 mph19.3 kmh 30.40 in1029.5 mb 0.00 in0.0 mm 0.00 in0.0 mm 0.00 in0.0 mm
01:56 AM 54.3°F12.4°C 46.9°F8.3°C 76% 8.0 mph ENE12.9 kmh ENE 12.0 mph19.3 kmh 30.41 in1029.8 mb 0.00 in0.0 mm 0.00 in0.0 mm 0.00 in0.0 mm
01:55 AM 54.3°F12.4°C 46.9°F8.3°C 76% 8.0 mph ENE12.9 kmh ENE 11.0 mph17.7 kmh 30.40 in1029.5 mb 0.00 in0.0 mm 0.00 in0.0 mm 0.00 in0.0 mm
01:54 AM 54.3°F12.4°C 46.9°F8.3°C 76% 8.0 mph ENE12.9 kmh ENE 11.0 mph17.7 kmh 30.40 in1029.5 mb 0.00 in0.0 mm 0.00 in0.0 mm 0.00 in0.0 mm
01:53 AM 54.3°F12.4°C 46.9°F8.3°C 76% 8.0 mph ENE12.9 kmh ENE 11.0 mph17.7 kmh 30.41 in1029.8 mb 0.00 in0.0 mm 0.00 in0.0 mm 0.00 in0.0 mm
01:52 AM 54.3°F12.4°C 46.9°F8.3°C 76% 8.0 mph ENE12.9 kmh ENE 11.0 mph17.7 kmh 30.41 in1029.8 mb 0.00 in0.0 mm 0.00 in0.0 mm 0.00 in0.0 mm
01:51 AM 54.3°F12.4°C 46.9°F8.3°C 76% 8.0 mph ENE12.9 kmh ENE 11.0 mph17.7 kmh 30.41 in1029.8 mb 0.00 in0.0 mm 0.00 in0.0 mm 0.00 in0.0 mm
01:50 AM 54.3°F12.4°C 46.9°F8.3°C 76% 8.0 mph ENE12.9 kmh ENE 10.0 mph16.1 kmh 30.40 in1029.5 mb 0.00 in0.0 mm 0.00 in0.0 mm 0.00 in0.0 mm
01:49 AM 54.3°F12.4°C 46.9°F8.3°C 76% 8.0 mph ENE12.9 kmh ENE 10.0 mph16.1 kmh 30.40 in1029.5 mb 0.00 in0.0 mm 0.00 in0.0 mm 0.00 in0.0 mm
01:48 AM 54.3°F12.4°C 46.9°F8.3°C 76% 8.0 mph ENE12.9 kmh ENE 11.0 mph17.7 kmh 30.41 in1029.8 mb 0.00 in0.0 mm 0.00 in0.0 mm 0.00 in0.0 mm
01:47 AM 54.3°F12.4°C 46.9°F8.3°C 76% 8.0 mph ENE12.9 kmh ENE 11.0 mph17.7 kmh 30.41 in1029.8 mb 0.00 in0.0 mm 0.00 in0.0 mm 0.00 in0.0 mm
01:46 AM 54.3°F12.4°C 46.9°F8.3°C 76% 8.0 mph ENE12.9 kmh ENE 11.0 mph17.7 kmh 30.41 in1029.8 mb 0.00 in0.0 mm 0.00 in0.0 mm 0.00 in0.0 mm
01:45 AM 54.5°F12.5°C 47.1°F8.4°C 76% 8.0 mph ENE12.9 kmh ENE 11.0 mph17.7 kmh 30.41 in1029.8 mb 0.00 in0.0 mm 0.00 in0.0 mm 0.00 in0.0 mm
01:44 AM 54.5°F12.5°C 46.7°F8.2°C 75% 8.0 mph ENE12.9 kmh ENE 11.0 mph17.7 kmh 30.41 in1029.8 mb 0.00 in0.0 mm 0.00 in0.0 mm 0.00 in0.0 mm
01:43 AM 54.5°F12.5°C 46.7°F8.2°C 75% 8.0 mph ENE12.9 kmh ENE 11.0 mph17.7 kmh 30.40 in1029.5 mb 0.00 in0.0 mm 0.00 in0.0 mm 0.00 in0.0 mm
01:42 AM 54.5°F12.5°C 46.7°F8.2°C 75% 8.0 mph ENE12.9 kmh ENE 11.0 mph17.7 kmh 30.41 in1029.8 mb 0.00 in0.0 mm 0.00 in0.0 mm 0.00 in0.0 mm
01:41 AM 54.7°F12.6°C 46.9°F8.3°C 75% 8.0 mph ENE12.9 kmh ENE 11.0 mph17.7 kmh 30.41 in1029.8 mb 0.00 in0.0 mm 0.00 in0.0 mm 0.00 in0.0 mm
01:40 AM 54.7°F12.6°C 46.9°F8.3°C 75% 8.0 mph ENE12.9 kmh ENE 11.0 mph17.7 kmh 30.40 in1029.5 mb 0.00 in0.0 mm 0.00 in0.0 mm 0.00 in0.0 mm
01:39 AM 54.7°F12.6°C 46.9°F8.3°C 75% 8.0 mph ENE12.9 kmh ENE 11.0 mph17.7 kmh 30.41 in1029.8 mb 0.00 in0.0 mm 0.00 in0.0 mm 0.00 in0.0 mm
01:38 AM 54.7°F12.6°C 46.9°F8.3°C 75% 8.0 mph ENE12.9 kmh ENE 11.0 mph17.7 kmh 30.40 in1029.5 mb 0.00 in0.0 mm 0.00 in0.0 mm 0.00 in0.0 mm
01:37 AM 54.7°F12.6°C 46.9°F8.3°C 75% 8.0 mph ENE12.9 kmh ENE 11.0 mph17.7 kmh 30.40 in1029.5 mb 0.00 in0.0 mm 0.00 in0.0 mm 0.00 in0.0 mm
01:36 AM 54.7°F12.6°C 46.9°F8.3°C 75% 8.0 mph ENE12.9 kmh ENE 11.0 mph17.7 kmh 30.41 in1029.8 mb 0.00 in0.0 mm 0.00 in0.0 mm 0.00 in0.0 mm
01:35 AM 54.7°F12.6°C 46.9°F8.3°C 75% 8.0 mph ENE12.9 kmh ENE 11.0 mph17.7 kmh 30.41 in1029.8 mb 0.00 in0.0 mm 0.00 in0.0 mm 0.00 in0.0 mm
01:34 AM 54.9°F12.7°C 47.1°F8.4°C 75% 8.0 mph ENE12.9 kmh ENE 11.0 mph17.7 kmh 30.41 in1029.8 mb 0.00 in0.0 mm 0.00 in0.0 mm 0.00 in0.0 mm
01:33 AM 54.9°F12.7°C 47.1°F8.4°C 75% 8.0 mph ENE12.9 kmh ENE 12.0 mph19.3 kmh 30.41 in1029.8 mb 0.00 in0.0 mm 0.00 in0.0 mm 0.00 in0.0 mm
01:32 AM 54.9°F12.7°C 47.1°F8.4°C 75% 8.0 mph ENE12.9 kmh ENE 12.0 mph19.3 kmh 30.41 in1029.8 mb 0.00 in0.0 mm 0.00 in0.0 mm 0.00 in0.0 mm
01:31 AM 54.9°F12.7°C 47.1°F8.4°C 75% 8.0 mph ENE12.9 kmh ENE 12.0 mph19.3 kmh 30.41 in1029.8 mb 0.00 in0.0 mm 0.00 in0.0 mm 0.00 in0.0 mm
01:30 AM 54.9°F12.7°C 47.1°F8.4°C 75% 8.0 mph ENE12.9 kmh ENE 12.0 mph19.3 kmh 30.41 in1029.8 mb 0.00 in0.0 mm 0.00 in0.0 mm 0.00 in0.0 mm
01:29 AM 54.9°F12.7°C 47.1°F8.4°C 75% 8.0 mph ENE12.9 kmh ENE 13.0 mph20.9 kmh 30.41 in1029.8 mb 0.00 in0.0 mm 0.00 in0.0 mm 0.00 in0.0 mm
01:28 AM 55.0°F12.8°C 47.3°F8.5°C 75% 8.0 mph ENE12.9 kmh ENE 13.0 mph20.9 kmh 30.41 in1029.8 mb 0.00 in0.0 mm 0.00 in0.0 mm 0.00 in0.0 mm
01:27 AM 55.0°F12.8°C 47.3°F8.5°C 75% 8.0 mph ENE12.9 kmh ENE 13.0 mph20.9 kmh 30.41 in1029.8 mb 0.00 in0.0 mm 0.00 in0.0 mm 0.00 in0.0 mm
01:26 AM 55.0°F12.8°C 47.3°F8.5°C 75% 8.0 mph ENE12.9 kmh ENE 13.0 mph20.9 kmh 30.41 in1029.8 mb 0.00 in0.0 mm 0.00 in0.0 mm 0.00 in0.0 mm
01:25 AM 55.0°F12.8°C 47.3°F8.5°C 75% 8.0 mph ENE12.9 kmh ENE 13.0 mph20.9 kmh 30.41 in1029.8 mb 0.00 in0.0 mm 0.00 in0.0 mm 0.00 in0.0 mm
01:24 AM 55.0°F12.8°C 47.3°F8.5°C 75% 8.0 mph ENE12.9 kmh ENE 13.0 mph20.9 kmh 30.41 in1029.8 mb 0.00 in0.0 mm 0.00 in0.0 mm 0.00 in0.0 mm
01:23 AM 55.0°F12.8°C 47.3°F8.5°C 75% 8.0 mph ENE12.9 kmh ENE 13.0 mph20.9 kmh 30.41 in1029.8 mb 0.00 in0.0 mm 0.00 in0.0 mm 0.00 in0.0 mm
01:22 AM 55.0°F12.8°C 46.9°F8.3°C 74% 8.0 mph NE12.9 kmh NE 13.0 mph20.9 kmh 30.41 in1029.8 mb 0.00 in0.0 mm 0.00 in0.0 mm 0.00 in0.0 mm
01:21 AM 55.0°F12.8°C 46.9°F8.3°C 74% 8.0 mph NE12.9 kmh NE 13.0 mph20.9 kmh 30.41 in1029.8 mb 0.00 in0.0 mm 0.00 in0.0 mm 0.00 in0.0 mm
01:20 AM 55.0°F12.8°C 46.9°F8.3°C 74% 8.0 mph NE12.9 kmh NE 13.0 mph20.9 kmh 30.41 in1029.8 mb 0.00 in0.0 mm 0.00 in0.0 mm 0.00 in0.0 mm
01:19 AM 55.0°F12.8°C 46.9°F8.3°C 74% 8.0 mph NE12.9 kmh NE 11.0 mph17.7 kmh 30.41 in1029.8 mb 0.00 in0.0 mm 0.00 in0.0 mm 0.00 in0.0 mm
01:18 AM 55.0°F12.8°C 46.9°F8.3°C 74% 8.0 mph NE12.9 kmh NE 11.0 mph17.7 kmh 30.41 in1029.8 mb 0.00 in0.0 mm 0.00 in0.0 mm 0.00 in0.0 mm
01:17 AM 55.2°F12.9°C 47.1°F8.4°C 74% 8.0 mph ENE12.9 kmh ENE 11.0 mph17.7 kmh 30.41 in1029.8 mb 0.00 in0.0 mm 0.00 in0.0 mm 0.00 in0.0 mm
01:16 AM 55.2°F12.9°C 47.1°F8.4°C 74% 8.0 mph ENE12.9 kmh ENE 11.0 mph17.7 kmh 30.41 in1029.8 mb 0.00 in0.0 mm 0.00 in0.0 mm 0.00 in0.0 mm
01:15 AM 55.2°F12.9°C 47.1°F8.4°C 74% 8.0 mph ENE12.9 kmh ENE 11.0 mph17.7 kmh 30.41 in1029.8 mb 0.00 in0.0 mm 0.00 in0.0 mm 0.00 in0.0 mm
01:14 AM 55.2°F12.9°C 47.1°F8.4°C 74% 8.0 mph ENE12.9 kmh ENE 11.0 mph17.7 kmh 30.41 in1029.8 mb 0.00 in0.0 mm 0.00 in0.0 mm 0.00 in0.0 mm
01:13 AM 55.2°F12.9°C 47.1°F8.4°C 74% 8.0 mph ENE12.9 kmh ENE 11.0 mph17.7 kmh 30.41 in1029.8 mb 0.00 in0.0 mm 0.00 in0.0 mm 0.00 in0.0 mm
01:12 AM 55.2°F12.9°C 47.1°F8.4°C 74% 8.0 mph ENE12.9 kmh ENE 11.0 mph17.7 kmh 30.41 in1029.8 mb 0.00 in0.0 mm 0.00 in0.0 mm 0.00 in0.0 mm
01:11 AM 55.2°F12.9°C 47.1°F8.4°C 74% 7.0 mph ENE11.3 kmh ENE 11.0 mph17.7 kmh 30.41 in1029.8 mb 0.00 in0.0 mm 0.00 in0.0 mm 0.00 in0.0 mm
01:10 AM 55.2°F12.9°C 47.1°F8.4°C 74% 7.0 mph ENE11.3 kmh ENE 11.0 mph17.7 kmh 30.41 in1029.8 mb 0.00 in0.0 mm 0.00 in0.0 mm 0.00 in0.0 mm
01:09 AM 55.4°F13.0°C 47.2°F8.4°C 74% 7.0 mph ENE11.3 kmh ENE 11.0 mph17.7 kmh 30.41 in1029.8 mb 0.00 in0.0 mm 0.00 in0.0 mm 0.00 in0.0 mm
01:08 AM 55.4°F13.0°C 47.2°F8.4°C 74% 7.0 mph ENE11.3 kmh ENE 11.0 mph17.7 kmh 30.41 in1029.8 mb 0.00 in0.0 mm 0.00 in0.0 mm 0.00 in0.0 mm
01:07 AM 55.4°F13.0°C 47.2°F8.4°C 74% 7.0 mph NE11.3 kmh NE 11.0 mph17.7 kmh 30.41 in1029.8 mb 0.00 in0.0 mm 0.00 in0.0 mm 0.00 in0.0 mm
01:06 AM 55.4°F13.0°C 47.2°F8.4°C 74% 6.0 mph NE9.7 kmh NE 11.0 mph17.7 kmh 30.41 in1029.8 mb 0.00 in0.0 mm 0.00 in0.0 mm 0.00 in0.0 mm
01:05 AM 55.4°F13.0°C 47.2°F8.4°C 74% 6.0 mph NE9.7 kmh NE 11.0 mph17.7 kmh 30.41 in1029.8 mb 0.00 in0.0 mm 0.00 in0.0 mm 0.00 in0.0 mm
01:04 AM 55.4°F13.0°C 47.2°F8.4°C 74% 6.0 mph NE9.7 kmh NE 11.0 mph17.7 kmh 30.41 in1029.8 mb 0.00 in0.0 mm 0.00 in0.0 mm 0.00 in0.0 mm
01:03 AM 55.6°F13.1°C 47.4°F8.6°C 74% 6.0 mph NE9.7 kmh NE 11.0 mph17.7 kmh 30.41 in1029.8 mb 0.00 in0.0 mm 0.00 in0.0 mm 0.00 in0.0 mm
01:02 AM 55.6°F13.1°C 47.4°F8.6°C 74% 6.0 mph NE9.7 kmh NE 11.0 mph17.7 kmh 30.41 in1029.8 mb 0.00 in0.0 mm 0.00 in0.0 mm 0.00 in0.0 mm
01:01 AM 55.6°F13.1°C 47.4°F8.6°C 74% 6.0 mph NE9.7 kmh NE 10.0 mph16.1 kmh 30.41 in1029.8 mb 0.00 in0.0 mm 0.00 in0.0 mm 0.00 in0.0 mm
01:00 AM 55.6°F13.1°C 47.4°F8.6°C 74% 6.0 mph NE9.7 kmh NE 10.0 mph16.1 kmh 30.41 in1029.8 mb 0.00 in0.0 mm 0.00 in0.0 mm 0.00 in0.0 mm
12:59 AM 55.6°F13.1°C 47.4°F8.6°C 74% 6.0 mph NE9.7 kmh NE 10.0 mph16.1 kmh 30.41 in1029.8 mb 0.00 in0.0 mm 0.00 in0.0 mm 0.00 in0.0 mm
12:58 AM 55.6°F13.1°C 47.4°F8.6°C 74% 6.0 mph NE9.7 kmh NE 10.0 mph16.1 kmh 30.41 in1029.8 mb 0.00 in0.0 mm 0.00 in0.0 mm 0.00 in0.0 mm
12:57 AM 55.6°F13.1°C 47.1°F8.4°C 73% 6.0 mph NE9.7 kmh NE 10.0 mph16.1 kmh 30.41 in1029.8 mb 0.00 in0.0 mm 0.00 in0.0 mm 0.00 in0.0 mm
12:56 AM 55.6°F13.1°C 47.1°F8.4°C 73% 6.0 mph NE9.7 kmh NE 10.0 mph16.1 kmh 30.41 in1029.8 mb 0.00 in0.0 mm 0.00 in0.0 mm 0.00 in0.0 mm
12:55 AM 55.6°F13.1°C 47.1°F8.4°C 73% 6.0 mph NE9.7 kmh NE 10.0 mph16.1 kmh 30.41 in1029.8 mb 0.00 in0.0 mm 0.00 in0.0 mm 0.00 in0.0 mm
12:54 AM 55.8°F13.2°C 47.2°F8.4°C 73% 6.0 mph NE9.7 kmh NE 10.0 mph16.1 kmh 30.41 in1029.8 mb 0.00 in0.0 mm 0.00 in0.0 mm 0.00 in0.0 mm
12:53 AM 55.8°F13.2°C 47.2°F8.4°C 73% 6.0 mph NE9.7 kmh NE 10.0 mph16.1 kmh 30.41 in1029.8 mb 0.00 in0.0 mm 0.00 in0.0 mm 0.00 in0.0 mm
12:52 AM 55.8°F13.2°C 47.2°F8.4°C 73% 6.0 mph NE9.7 kmh NE 10.0 mph16.1 kmh 30.41 in1029.8 mb 0.00 in0.0 mm 0.00 in0.0 mm 0.00 in0.0 mm
12:51 AM 55.8°F13.2°C 47.2°F8.4°C 73% 6.0 mph NE9.7 kmh NE 10.0 mph16.1 kmh 30.41 in1029.8 mb 0.00 in0.0 mm 0.00 in0.0 mm 0.00 in0.0 mm
12:50 AM 55.8°F13.2°C 47.2°F8.4°C 73% 6.0 mph NE9.7 kmh NE 10.0 mph16.1 kmh 30.41 in1029.8 mb 0.00 in0.0 mm 0.00 in0.0 mm 0.00 in0.0 mm
12:49 AM 55.8°F13.2°C 47.2°F8.4°C 73% 6.0 mph NE9.7 kmh NE 10.0 mph16.1 kmh 30.41 in1029.8 mb 0.00 in0.0 mm 0.00 in0.0 mm 0.00 in0.0 mm
12:48 AM 55.8°F13.2°C 47.2°F8.4°C 73% 6.0 mph NE9.7 kmh NE 10.0 mph16.1 kmh 30.41 in1029.8 mb 0.00 in0.0 mm 0.00 in0.0 mm 0.00 in0.0 mm
12:47 AM 55.8°F13.2°C 47.2°F8.4°C 73% 6.0 mph NE9.7 kmh NE 10.0 mph16.1 kmh 30.41 in1029.8 mb 0.00 in0.0 mm 0.00 in0.0 mm 0.00 in0.0 mm
12:46 AM 55.8°F13.2°C 47.2°F8.4°C 73% 6.0 mph NE9.7 kmh NE 10.0 mph16.1 kmh 30.41 in1029.8 mb 0.00 in0.0 mm 0.00 in0.0 mm 0.00 in0.0 mm
12:45 AM 55.8°F13.2°C 47.2°F8.4°C 73% 6.0 mph NE9.7 kmh NE 10.0 mph16.1 kmh 30.41 in1029.8 mb 0.00 in0.0 mm 0.00 in0.0 mm 0.00 in0.0 mm
12:44 AM 55.9°F13.3°C 47.4°F8.6°C 73% 6.0 mph NE9.7 kmh NE 10.0 mph16.1 kmh 30.41 in1029.8 mb 0.00 in0.0 mm 0.00 in0.0 mm 0.00 in0.0 mm
12:43 AM 55.9°F13.3°C 47.4°F8.6°C 73% 6.0 mph NE9.7 kmh NE 10.0 mph16.1 kmh 30.41 in1029.8 mb 0.00 in0.0 mm 0.00 in0.0 mm 0.00 in0.0 mm
12:42 AM 55.9°F13.3°C 47.4°F8.6°C 73% 6.0 mph NE9.7 kmh NE 10.0 mph16.1 kmh 30.41 in1029.8 mb 0.00 in0.0 mm 0.00 in0.0 mm 0.00 in0.0 mm
12:41 AM 55.9°F13.3°C 47.4°F8.6°C 73% 6.0 mph NE9.7 kmh NE 10.0 mph16.1 kmh 30.41 in1029.8 mb 0.00 in0.0 mm 0.00 in0.0 mm 0.00 in0.0 mm
12:40 AM 55.9°F13.3°C 47.4°F8.6°C 73% 6.0 mph NE9.7 kmh NE 11.0 mph17.7 kmh 30.41 in1029.8 mb 0.00 in0.0 mm 0.00 in0.0 mm 0.00 in0.0 mm
12:39 AM 55.9°F13.3°C 47.4°F8.6°C 73% 6.0 mph NE9.7 kmh NE 11.0 mph17.7 kmh 30.41 in1029.8 mb 0.00 in0.0 mm 0.00 in0.0 mm 0.00 in0.0 mm
12:38 AM 55.9°F13.3°C 47.4°F8.6°C 73% 6.0 mph NE9.7 kmh NE 11.0 mph17.7 kmh 30.41 in1029.8 mb 0.00 in0.0 mm 0.00 in0.0 mm 0.00 in0.0 mm
12:37 AM 55.9°F13.3°C 47.4°F8.6°C 73% 6.0 mph NE9.7 kmh NE 11.0 mph17.7 kmh 30.41 in1029.8 mb 0.00 in0.0 mm 0.00 in0.0 mm 0.00 in0.0 mm
12:36 AM 55.9°F13.3°C 47.4°F8.6°C 73% 6.0 mph NE9.7 kmh NE 11.0 mph17.7 kmh 30.41 in1029.8 mb 0.00 in0.0 mm 0.00 in0.0 mm 0.00 in0.0 mm
12:35 AM 56.1°F13.4°C 47.6°F8.7°C 73% 6.0 mph NE9.7 kmh NE 11.0 mph17.7 kmh 30.41 in1029.8 mb 0.00 in0.0 mm 0.00 in0.0 mm 0.00 in0.0 mm
12:34 AM 56.1°F13.4°C 47.6°F8.7°C 73% 6.0 mph NE9.7 kmh NE 11.0 mph17.7 kmh 30.41 in1029.8 mb 0.00 in0.0 mm 0.00 in0.0 mm 0.00 in0.0 mm
12:33 AM 56.1°F13.4°C 47.6°F8.7°C 73% 6.0 mph NE9.7 kmh NE 11.0 mph17.7 kmh 30.41 in1029.8 mb 0.00 in0.0 mm 0.00 in0.0 mm 0.00 in0.0 mm
12:32 AM 56.1°F13.4°C 47.6°F8.7°C 73% 6.0 mph NE9.7 kmh NE 11.0 mph17.7 kmh 30.41 in1029.8 mb 0.00 in0.0 mm 0.00 in0.0 mm 0.00 in0.0 mm
12:31 AM 56.1°F13.4°C 47.6°F8.7°C 73% 6.0 mph NE9.7 kmh NE 11.0 mph17.7 kmh 30.41 in1029.8 mb 0.00 in0.0 mm 0.00 in0.0 mm 0.00 in0.0 mm
12:30 AM 56.1°F13.4°C 47.6°F8.7°C 73% 6.0 mph NE9.7 kmh NE 9.0 mph14.5 kmh 30.41 in1029.8 mb 0.00 in0.0 mm 0.00 in0.0 mm 0.00 in0.0 mm
12:29 AM 56.1°F13.4°C 47.6°F8.7°C 73% 6.0 mph NE9.7 kmh NE 9.0 mph14.5 kmh 30.41 in1029.8 mb 0.00 in0.0 mm 0.00 in0.0 mm 0.00 in0.0 mm
12:28 AM 56.1°F13.4°C 47.6°F8.7°C 73% 6.0 mph NE9.7 kmh NE 9.0 mph14.5 kmh 30.41 in1029.8 mb 0.00 in0.0 mm 0.00 in0.0 mm 0.00 in0.0 mm
12:27 AM 56.3°F13.5°C 47.4°F8.6°C 72% 6.0 mph NE9.7 kmh NE 9.0 mph14.5 kmh 30.41 in1029.8 mb 0.00 in0.0 mm 0.00 in0.0 mm 0.00 in0.0 mm
12:26 AM 56.3°F13.5°C 47.4°F8.6°C 72% 6.0 mph NE9.7 kmh NE 9.0 mph14.5 kmh 30.41 in1029.8 mb 0.00 in0.0 mm 0.00 in0.0 mm 0.00 in0.0 mm
12:25 AM 56.3°F13.5°C 47.4°F8.6°C 72% 5.0 mph NE8.0 kmh NE 9.0 mph14.5 kmh 30.42 in1030.1 mb 0.00 in0.0 mm 0.00 in0.0 mm 0.00 in0.0 mm
12:24 AM 56.3°F13.5°C 47.4°F8.6°C 72% 5.0 mph NE8.0 kmh NE 9.0 mph14.5 kmh 30.41 in1029.8 mb 0.00 in0.0 mm 0.00 in0.0 mm 0.00 in0.0 mm
12:23 AM 56.3°F13.5°C 47.4°F8.6°C 72% 5.0 mph NE8.0 kmh NE 9.0 mph14.5 kmh 30.41 in1029.8 mb 0.00 in0.0 mm 0.00 in0.0 mm 0.00 in0.0 mm
12:22 AM 56.3°F13.5°C 47.4°F8.6°C 72% 5.0 mph NE8.0 kmh NE 9.0 mph14.5 kmh 30.41 in1029.8 mb 0.00 in0.0 mm 0.00 in0.0 mm 0.00 in0.0 mm
12:21 AM 56.5°F13.6°C 47.6°F8.7°C 72% 5.0 mph NE8.0 kmh NE 9.0 mph14.5 kmh 30.42 in1030.1 mb 0.00 in0.0 mm 0.00 in0.0 mm 0.00 in0.0 mm
12:20 AM 56.5°F13.6°C 47.6°F8.7°C 72% 5.0 mph NE8.0 kmh NE 9.0 mph14.5 kmh 30.41 in1029.8 mb 0.00 in0.0 mm 0.00 in0.0 mm 0.00 in0.0 mm
12:19 AM 56.5°F13.6°C 47.6°F8.7°C 72% 5.0 mph NE8.0 kmh NE 9.0 mph14.5 kmh 30.41 in1029.8 mb 0.00 in0.0 mm 0.00 in0.0 mm 0.00 in0.0 mm
12:18 AM 56.5°F13.6°C 47.6°F8.7°C 72% 5.0 mph NE8.0 kmh NE 9.0 mph14.5 kmh 30.41 in1029.8 mb 0.00 in0.0 mm 0.00 in0.0 mm 0.00 in0.0 mm
12:17 AM 56.5°F13.6°C 47.6°F8.7°C 72% 5.0 mph NE8.0 kmh NE 9.0 mph14.5 kmh 30.41 in1029.8 mb 0.00 in0.0 mm 0.00 in0.0 mm 0.00 in0.0 mm
12:16 AM 56.5°F13.6°C 47.6°F8.7°C 72% 5.0 mph NE8.0 kmh NE 9.0 mph14.5 kmh 30.41 in1029.8 mb 0.00 in0.0 mm 0.00 in0.0 mm 0.00 in0.0 mm
12:15 AM 56.5°F13.6°C 47.6°F8.7°C 72% 5.0 mph NE8.0 kmh NE 8.0 mph12.9 kmh 30.41 in1029.8 mb 0.00 in0.0 mm 0.00 in0.0 mm 0.00 in0.0 mm
12:14 AM 56.5°F13.6°C 47.6°F8.7°C 72% 5.0 mph NE8.0 kmh NE 8.0 mph12.9 kmh 30.41 in1029.8 mb 0.00 in0.0 mm 0.00 in0.0 mm 0.00 in0.0 mm
12:13 AM 56.5°F13.6°C 47.6°F8.7°C 72% 5.0 mph NE8.0 kmh NE 8.0 mph12.9 kmh 30.41 in1029.8 mb 0.00 in0.0 mm 0.00 in0.0 mm 0.00 in0.0 mm
12:12 AM 56.7°F13.7°C 47.7°F8.7°C 72% 5.0 mph NE8.0 kmh NE 8.0 mph12.9 kmh 30.41 in1029.8 mb 0.00 in0.0 mm 0.00 in0.0 mm 0.00 in0.0 mm
12:11 AM 56.7°F13.7°C 47.7°F8.7°C 72% 5.0 mph NE8.0 kmh NE 8.0 mph12.9 kmh 30.41 in1029.8 mb 0.00 in0.0 mm 0.00 in0.0 mm 0.00 in0.0 mm
12:10 AM 56.7°F13.7°C 47.7°F8.7°C 72% 5.0 mph NE8.0 kmh NE 8.0 mph12.9 kmh 30.41 in1029.8 mb 0.00 in0.0 mm 0.00 in0.0 mm 0.00 in0.0 mm
12:09 AM 56.7°F13.7°C 47.7°F8.7°C 72% 5.0 mph NE8.0 kmh NE 8.0 mph12.9 kmh 30.41 in1029.8 mb 0.00 in0.0 mm 0.00 in0.0 mm 0.00 in0.0 mm
12:08 AM 56.7°F13.7°C 47.7°F8.7°C 72% 5.0 mph NE8.0 kmh NE 8.0 mph12.9 kmh 30.41 in1029.8 mb 0.00 in0.0 mm 0.00 in0.0 mm 0.00 in0.0 mm
12:07 AM 56.7°F13.7°C 47.7°F8.7°C 72% 5.0 mph NE8.0 kmh NE 8.0 mph12.9 kmh 30.41 in1029.8 mb 0.00 in0.0 mm 0.00 in0.0 mm 0.00 in0.0 mm
12:06 AM 56.8°F13.8°C 47.9°F8.8°C 72% 5.0 mph NE8.0 kmh NE 8.0 mph12.9 kmh 30.41 in1029.8 mb 0.00 in0.0 mm 0.00 in0.0 mm 0.00 in0.0 mm
12:05 AM 56.8°F13.8°C 47.9°F8.8°C 72% 5.0 mph NE8.0 kmh NE 8.0 mph12.9 kmh 30.41 in1029.8 mb 0.00 in0.0 mm 0.00 in0.0 mm 0.00 in0.0 mm
12:04 AM 56.8°F13.8°C 47.9°F8.8°C 72% 6.0 mph NE9.7 kmh NE 8.0 mph12.9 kmh 30.41 in1029.8 mb 0.00 in0.0 mm 0.00 in0.0 mm 0.00 in0.0 mm
12:03 AM 56.8°F13.8°C 47.9°F8.8°C 72% 6.0 mph NE9.7 kmh NE 10.0 mph16.1 kmh 30.41 in1029.8 mb 0.00 in0.0 mm 0.00 in0.0 mm 0.00 in0.0 mm
12:02 AM 56.8°F13.8°C 47.9°F8.8°C 72% 6.0 mph NE9.7 kmh NE 10.0 mph16.1 kmh 30.41 in1029.8 mb 0.00 in0.0 mm 0.00 in0.0 mm 0.00 in0.0 mm
12:01 AM 56.8°F13.8°C 47.9°F8.8°C 72% 6.0 mph NE9.7 kmh NE 10.0 mph16.1 kmh 30.41 in1029.8 mb 0.00 in0.0 mm 0.00 in0.0 mm 0.00 in0.0 mm
12:00 AM 56.8°F13.8°C 47.9°F8.8°C 72% 6.0 mph NE9.7 kmh NE 10.0 mph16.1 kmh 30.41 in1029.8 mb 0.00 in0.0 mm 0.00 in0.0 mm 0.00 in0.0 mm